<?xml version="1.0" encoding="UTF-8" standalone="no" ?>
<gpx xmlns="http://www.topografix.com/GPX/1/1" xmlns:xsi="http://www.w3.org/2001/XMLSchema-instance" xsi:schemaLocation="http://www.topografix.com/GPX/1/1 http://www.topografix.com/GPX/1/1/gpx.xsd" version="1.1" creator="VisuGPX - https://www.visugpx.com">
  <metadata>
    <name>braine l'alleud</name>
    <desc><![CDATA[belle rando à Braine - l'Alleud ,une majorités de sentier.marche ADEPS]]></desc>
  </metadata>
  <trk>
    <name><![CDATA[2018-01-07 11:18:38]]></name>
    <trkseg>
      <trkpt lat="50.68708" lon="4.38018">
        <ele>127.51</ele>
        <time>2018-01-07T08:27:31Z</time>
      </trkpt>
      <trkpt lat="50.68708" lon="4.38019">
        <ele>127.51</ele>
        <time>2018-01-07T08:27:32Z</time>
      </trkpt>
      <trkpt lat="50.68707" lon="4.38019">
        <ele>128.95</ele>
        <time>2018-01-07T08:27:36Z</time>
      </trkpt>
      <trkpt lat="50.68707" lon="4.38019">
        <ele>127.51</ele>
        <time>2018-01-07T08:27:38Z</time>
      </trkpt>
      <trkpt lat="50.68707" lon="4.38021">
        <ele>126.55</ele>
        <time>2018-01-07T08:27:54Z</time>
      </trkpt>
      <trkpt lat="50.68707" lon="4.38021">
        <ele>127.99</ele>
        <time>2018-01-07T08:28:05Z</time>
      </trkpt>
      <trkpt lat="50.68708" lon="4.38022">
        <ele>127.99</ele>
        <time>2018-01-07T08:28:25Z</time>
      </trkpt>
      <trkpt lat="50.68706" lon="4.38026">
        <ele>126.55</ele>
        <time>2018-01-07T08:28:42Z</time>
      </trkpt>
      <trkpt lat="50.68699" lon="4.38028">
        <ele>126.55</ele>
        <time>2018-01-07T08:29:00Z</time>
      </trkpt>
      <trkpt lat="50.6869" lon="4.38023">
        <ele>126.55</ele>
        <time>2018-01-07T08:29:11Z</time>
      </trkpt>
      <trkpt lat="50.68686" lon="4.38011">
        <ele>126.07</ele>
        <time>2018-01-07T08:29:18Z</time>
      </trkpt>
      <trkpt lat="50.68684" lon="4.38006">
        <ele>126.07</ele>
        <time>2018-01-07T08:29:21Z</time>
      </trkpt>
      <trkpt lat="50.68677" lon="4.37984">
        <ele>125.59</ele>
        <time>2018-01-07T08:29:37Z</time>
      </trkpt>
      <trkpt lat="50.68671" lon="4.37969">
        <ele>125.11</ele>
        <time>2018-01-07T08:29:48Z</time>
      </trkpt>
      <trkpt lat="50.68664" lon="4.37955">
        <ele>124.63</ele>
        <time>2018-01-07T08:29:58Z</time>
      </trkpt>
      <trkpt lat="50.68657" lon="4.37943">
        <ele>124.15</ele>
        <time>2018-01-07T08:30:07Z</time>
      </trkpt>
      <trkpt lat="50.68645" lon="4.37921">
        <ele>123.67</ele>
        <time>2018-01-07T08:30:21Z</time>
      </trkpt>
      <trkpt lat="50.68635" lon="4.37909">
        <ele>123.19</ele>
        <time>2018-01-07T08:30:31Z</time>
      </trkpt>
      <trkpt lat="50.6863" lon="4.37903">
        <ele>122.71</ele>
        <time>2018-01-07T08:30:36Z</time>
      </trkpt>
      <trkpt lat="50.68623" lon="4.37895">
        <ele>122.22</ele>
        <time>2018-01-07T08:30:44Z</time>
      </trkpt>
      <trkpt lat="50.68613" lon="4.37878">
        <ele>122.22</ele>
        <time>2018-01-07T08:30:58Z</time>
      </trkpt>
      <trkpt lat="50.68596" lon="4.37881">
        <ele>122.22</ele>
        <time>2018-01-07T08:31:10Z</time>
      </trkpt>
      <trkpt lat="50.6859" lon="4.37884">
        <ele>122.22</ele>
        <time>2018-01-07T08:31:15Z</time>
      </trkpt>
      <trkpt lat="50.68579" lon="4.37875">
        <ele>123.19</ele>
        <time>2018-01-07T08:31:26Z</time>
      </trkpt>
      <trkpt lat="50.68579" lon="4.37872">
        <ele>123.19</ele>
        <time>2018-01-07T08:31:27Z</time>
      </trkpt>
      <trkpt lat="50.6857" lon="4.37856">
        <ele>123.19</ele>
        <time>2018-01-07T08:31:40Z</time>
      </trkpt>
      <trkpt lat="50.68566" lon="4.3785">
        <ele>123.19</ele>
        <time>2018-01-07T08:31:45Z</time>
      </trkpt>
      <trkpt lat="50.68556" lon="4.37827">
        <ele>123.19</ele>
        <time>2018-01-07T08:32:00Z</time>
      </trkpt>
      <trkpt lat="50.68556" lon="4.37819">
        <ele>123.19</ele>
        <time>2018-01-07T08:32:04Z</time>
      </trkpt>
      <trkpt lat="50.68559" lon="4.37784">
        <ele>123.19</ele>
        <time>2018-01-07T08:32:16Z</time>
      </trkpt>
      <trkpt lat="50.6856" lon="4.37782">
        <ele>123.19</ele>
        <time>2018-01-07T08:32:17Z</time>
      </trkpt>
      <trkpt lat="50.68559" lon="4.37778">
        <ele>123.19</ele>
        <time>2018-01-07T08:32:19Z</time>
      </trkpt>
      <trkpt lat="50.68559" lon="4.37768">
        <ele>123.19</ele>
        <time>2018-01-07T08:32:24Z</time>
      </trkpt>
      <trkpt lat="50.68556" lon="4.37763">
        <ele>123.19</ele>
        <time>2018-01-07T08:32:28Z</time>
      </trkpt>
      <trkpt lat="50.68555" lon="4.37758">
        <ele>123.19</ele>
        <time>2018-01-07T08:32:31Z</time>
      </trkpt>
      <trkpt lat="50.68553" lon="4.37731">
        <ele>123.67</ele>
        <time>2018-01-07T08:32:44Z</time>
      </trkpt>
      <trkpt lat="50.68557" lon="4.37703">
        <ele>123.67</ele>
        <time>2018-01-07T08:32:59Z</time>
      </trkpt>
      <trkpt lat="50.68568" lon="4.37692">
        <ele>124.63</ele>
        <time>2018-01-07T08:33:12Z</time>
      </trkpt>
      <trkpt lat="50.68582" lon="4.37688">
        <ele>126.07</ele>
        <time>2018-01-07T08:33:25Z</time>
      </trkpt>
      <trkpt lat="50.68598" lon="4.37688">
        <ele>127.03</ele>
        <time>2018-01-07T08:33:39Z</time>
      </trkpt>
      <trkpt lat="50.68615" lon="4.37681">
        <ele>127.99</ele>
        <time>2018-01-07T08:33:53Z</time>
      </trkpt>
      <trkpt lat="50.68639" lon="4.37669">
        <ele>128.95</ele>
        <time>2018-01-07T08:34:10Z</time>
      </trkpt>
      <trkpt lat="50.6865" lon="4.37639">
        <ele>130.4</ele>
        <time>2018-01-07T08:34:25Z</time>
      </trkpt>
      <trkpt lat="50.68651" lon="4.37603">
        <ele>130.4</ele>
        <time>2018-01-07T08:34:41Z</time>
      </trkpt>
      <trkpt lat="50.68647" lon="4.37577">
        <ele>130.4</ele>
        <time>2018-01-07T08:34:55Z</time>
      </trkpt>
      <trkpt lat="50.68646" lon="4.37573">
        <ele>128.95</ele>
        <time>2018-01-07T08:34:58Z</time>
      </trkpt>
      <trkpt lat="50.68657" lon="4.37544">
        <ele>127.51</ele>
        <time>2018-01-07T08:35:16Z</time>
      </trkpt>
      <trkpt lat="50.6866" lon="4.37542">
        <ele>127.99</ele>
        <time>2018-01-07T08:35:19Z</time>
      </trkpt>
      <trkpt lat="50.6868" lon="4.37535">
        <ele>126.07</ele>
        <time>2018-01-07T08:35:35Z</time>
      </trkpt>
      <trkpt lat="50.68688" lon="4.37524">
        <ele>125.11</ele>
        <time>2018-01-07T08:35:43Z</time>
      </trkpt>
      <trkpt lat="50.68691" lon="4.37514">
        <ele>124.63</ele>
        <time>2018-01-07T08:35:50Z</time>
      </trkpt>
      <trkpt lat="50.68696" lon="4.3751">
        <ele>124.15</ele>
        <time>2018-01-07T08:35:55Z</time>
      </trkpt>
      <trkpt lat="50.6872" lon="4.37505">
        <ele>121.74</ele>
        <time>2018-01-07T08:36:16Z</time>
      </trkpt>
      <trkpt lat="50.68744" lon="4.37505">
        <ele>121.26</ele>
        <time>2018-01-07T08:36:33Z</time>
      </trkpt>
      <trkpt lat="50.68762" lon="4.37514">
        <ele>121.26</ele>
        <time>2018-01-07T08:36:48Z</time>
      </trkpt>
      <trkpt lat="50.68768" lon="4.37519">
        <ele>120.3</ele>
        <time>2018-01-07T08:36:56Z</time>
      </trkpt>
      <trkpt lat="50.68775" lon="4.37517">
        <ele>120.3</ele>
        <time>2018-01-07T08:37:01Z</time>
      </trkpt>
      <trkpt lat="50.68793" lon="4.37496">
        <ele>119.82</ele>
        <time>2018-01-07T08:37:18Z</time>
      </trkpt>
      <trkpt lat="50.68806" lon="4.3748">
        <ele>118.86</ele>
        <time>2018-01-07T08:37:34Z</time>
      </trkpt>
      <trkpt lat="50.68818" lon="4.37461">
        <ele>118.86</ele>
        <time>2018-01-07T08:37:47Z</time>
      </trkpt>
      <trkpt lat="50.6883" lon="4.37441">
        <ele>118.38</ele>
        <time>2018-01-07T08:38:01Z</time>
      </trkpt>
      <trkpt lat="50.68842" lon="4.3742">
        <ele>117.42</ele>
        <time>2018-01-07T08:38:16Z</time>
      </trkpt>
      <trkpt lat="50.68853" lon="4.37394">
        <ele>116.46</ele>
        <time>2018-01-07T08:38:31Z</time>
      </trkpt>
      <trkpt lat="50.68863" lon="4.3737">
        <ele>116.46</ele>
        <time>2018-01-07T08:38:44Z</time>
      </trkpt>
      <trkpt lat="50.68866" lon="4.37362">
        <ele>116.46</ele>
        <time>2018-01-07T08:38:50Z</time>
      </trkpt>
      <trkpt lat="50.68875" lon="4.37335">
        <ele>116.46</ele>
        <time>2018-01-07T08:39:04Z</time>
      </trkpt>
      <trkpt lat="50.6888" lon="4.37317">
        <ele>115.98</ele>
        <time>2018-01-07T08:39:14Z</time>
      </trkpt>
      <trkpt lat="50.68884" lon="4.37305">
        <ele>115.98</ele>
        <time>2018-01-07T08:39:20Z</time>
      </trkpt>
      <trkpt lat="50.68889" lon="4.37271">
        <ele>115.5</ele>
        <time>2018-01-07T08:39:37Z</time>
      </trkpt>
      <trkpt lat="50.68894" lon="4.37254">
        <ele>115.01</ele>
        <time>2018-01-07T08:39:45Z</time>
      </trkpt>
      <trkpt lat="50.68897" lon="4.37224">
        <ele>115.01</ele>
        <time>2018-01-07T08:40:00Z</time>
      </trkpt>
      <trkpt lat="50.68899" lon="4.37201">
        <ele>114.05</ele>
        <time>2018-01-07T08:40:12Z</time>
      </trkpt>
      <trkpt lat="50.68902" lon="4.37166">
        <ele>113.57</ele>
        <time>2018-01-07T08:40:28Z</time>
      </trkpt>
      <trkpt lat="50.68904" lon="4.37131">
        <ele>113.57</ele>
        <time>2018-01-07T08:40:42Z</time>
      </trkpt>
      <trkpt lat="50.68904" lon="4.37097">
        <ele>112.61</ele>
        <time>2018-01-07T08:40:57Z</time>
      </trkpt>
      <trkpt lat="50.68905" lon="4.37063">
        <ele>112.13</ele>
        <time>2018-01-07T08:41:14Z</time>
      </trkpt>
      <trkpt lat="50.68906" lon="4.37056">
        <ele>112.13</ele>
        <time>2018-01-07T08:41:18Z</time>
      </trkpt>
      <trkpt lat="50.68905" lon="4.37026">
        <ele>112.13</ele>
        <time>2018-01-07T08:41:34Z</time>
      </trkpt>
      <trkpt lat="50.68906" lon="4.37002">
        <ele>112.13</ele>
        <time>2018-01-07T08:41:47Z</time>
      </trkpt>
      <trkpt lat="50.68906" lon="4.36973">
        <ele>110.69</ele>
        <time>2018-01-07T08:42:01Z</time>
      </trkpt>
      <trkpt lat="50.68904" lon="4.36936">
        <ele>110.21</ele>
        <time>2018-01-07T08:42:16Z</time>
      </trkpt>
      <trkpt lat="50.68903" lon="4.36923">
        <ele>110.21</ele>
        <time>2018-01-07T08:42:22Z</time>
      </trkpt>
      <trkpt lat="50.68903" lon="4.36896">
        <ele>110.21</ele>
        <time>2018-01-07T08:42:36Z</time>
      </trkpt>
      <trkpt lat="50.68904" lon="4.36861">
        <ele>109.25</ele>
        <time>2018-01-07T08:42:52Z</time>
      </trkpt>
      <trkpt lat="50.68905" lon="4.3683">
        <ele>109.25</ele>
        <time>2018-01-07T08:43:08Z</time>
      </trkpt>
      <trkpt lat="50.68906" lon="4.36798">
        <ele>108.29</ele>
        <time>2018-01-07T08:43:25Z</time>
      </trkpt>
      <trkpt lat="50.68907" lon="4.36762">
        <ele>108.29</ele>
        <time>2018-01-07T08:43:42Z</time>
      </trkpt>
      <trkpt lat="50.68907" lon="4.36729">
        <ele>107.81</ele>
        <time>2018-01-07T08:43:59Z</time>
      </trkpt>
      <trkpt lat="50.6891" lon="4.36689">
        <ele>107.32</ele>
        <time>2018-01-07T08:44:18Z</time>
      </trkpt>
      <trkpt lat="50.6891" lon="4.36662">
        <ele>106.84</ele>
        <time>2018-01-07T08:44:31Z</time>
      </trkpt>
      <trkpt lat="50.68912" lon="4.36633">
        <ele>106.36</ele>
        <time>2018-01-07T08:44:48Z</time>
      </trkpt>
      <trkpt lat="50.68912" lon="4.36632">
        <ele>106.36</ele>
        <time>2018-01-07T08:44:51Z</time>
      </trkpt>
      <trkpt lat="50.68913" lon="4.36608">
        <ele>105.88</ele>
        <time>2018-01-07T08:45:04Z</time>
      </trkpt>
      <trkpt lat="50.68917" lon="4.3658">
        <ele>104.92</ele>
        <time>2018-01-07T08:45:20Z</time>
      </trkpt>
      <trkpt lat="50.68918" lon="4.36572">
        <ele>104.92</ele>
        <time>2018-01-07T08:45:24Z</time>
      </trkpt>
      <trkpt lat="50.6892" lon="4.36562">
        <ele>104.44</ele>
        <time>2018-01-07T08:45:29Z</time>
      </trkpt>
      <trkpt lat="50.68924" lon="4.36543">
        <ele>104.44</ele>
        <time>2018-01-07T08:45:39Z</time>
      </trkpt>
      <trkpt lat="50.68927" lon="4.36514">
        <ele>104.44</ele>
        <time>2018-01-07T08:45:55Z</time>
      </trkpt>
      <trkpt lat="50.68932" lon="4.36481">
        <ele>104.44</ele>
        <time>2018-01-07T08:46:10Z</time>
      </trkpt>
      <trkpt lat="50.68938" lon="4.36447">
        <ele>103.96</ele>
        <time>2018-01-07T08:46:25Z</time>
      </trkpt>
      <trkpt lat="50.68943" lon="4.36414">
        <ele>103.48</ele>
        <time>2018-01-07T08:46:41Z</time>
      </trkpt>
      <trkpt lat="50.68948" lon="4.36389">
        <ele>103</ele>
        <time>2018-01-07T08:46:54Z</time>
      </trkpt>
      <trkpt lat="50.6895" lon="4.36377">
        <ele>103</ele>
        <time>2018-01-07T08:47:00Z</time>
      </trkpt>
      <trkpt lat="50.68954" lon="4.36361">
        <ele>103</ele>
        <time>2018-01-07T08:47:11Z</time>
      </trkpt>
      <trkpt lat="50.68961" lon="4.36332">
        <ele>103</ele>
        <time>2018-01-07T08:47:23Z</time>
      </trkpt>
      <trkpt lat="50.68967" lon="4.36305">
        <ele>103</ele>
        <time>2018-01-07T08:47:37Z</time>
      </trkpt>
      <trkpt lat="50.68973" lon="4.36296">
        <ele>101.08</ele>
        <time>2018-01-07T08:47:51Z</time>
      </trkpt>
      <trkpt lat="50.68975" lon="4.36304">
        <ele>99.15</ele>
        <time>2018-01-07T08:48:00Z</time>
      </trkpt>
      <trkpt lat="50.68962" lon="4.36292">
        <ele>98.67</ele>
        <time>2018-01-07T08:48:14Z</time>
      </trkpt>
      <trkpt lat="50.68961" lon="4.3629">
        <ele>98.67</ele>
        <time>2018-01-07T08:48:16Z</time>
      </trkpt>
      <trkpt lat="50.68941" lon="4.36268">
        <ele>98.67</ele>
        <time>2018-01-07T08:48:33Z</time>
      </trkpt>
      <trkpt lat="50.68935" lon="4.36262">
        <ele>99.63</ele>
        <time>2018-01-07T08:48:39Z</time>
      </trkpt>
      <trkpt lat="50.68914" lon="4.36234">
        <ele>101.08</ele>
        <time>2018-01-07T08:49:00Z</time>
      </trkpt>
      <trkpt lat="50.68897" lon="4.3621">
        <ele>102.52</ele>
        <time>2018-01-07T08:49:19Z</time>
      </trkpt>
      <trkpt lat="50.6888" lon="4.3619">
        <ele>103.48</ele>
        <time>2018-01-07T08:49:34Z</time>
      </trkpt>
      <trkpt lat="50.68864" lon="4.36172">
        <ele>103.96</ele>
        <time>2018-01-07T08:49:49Z</time>
      </trkpt>
      <trkpt lat="50.68843" lon="4.36153">
        <ele>104.92</ele>
        <time>2018-01-07T08:50:07Z</time>
      </trkpt>
      <trkpt lat="50.68822" lon="4.36135">
        <ele>105.4</ele>
        <time>2018-01-07T08:50:24Z</time>
      </trkpt>
      <trkpt lat="50.68816" lon="4.36126">
        <ele>105.88</ele>
        <time>2018-01-07T08:50:31Z</time>
      </trkpt>
      <trkpt lat="50.68794" lon="4.36103">
        <ele>106.84</ele>
        <time>2018-01-07T08:50:51Z</time>
      </trkpt>
      <trkpt lat="50.68779" lon="4.36084">
        <ele>107.32</ele>
        <time>2018-01-07T08:51:06Z</time>
      </trkpt>
      <trkpt lat="50.68762" lon="4.36056">
        <ele>107.32</ele>
        <time>2018-01-07T08:51:25Z</time>
      </trkpt>
      <trkpt lat="50.68742" lon="4.36026">
        <ele>107.32</ele>
        <time>2018-01-07T08:51:46Z</time>
      </trkpt>
      <trkpt lat="50.68727" lon="4.36">
        <ele>107.81</ele>
        <time>2018-01-07T08:52:03Z</time>
      </trkpt>
      <trkpt lat="50.68706" lon="4.3597">
        <ele>107.81</ele>
        <time>2018-01-07T08:52:24Z</time>
      </trkpt>
      <trkpt lat="50.68691" lon="4.3595">
        <ele>105.88</ele>
        <time>2018-01-07T08:52:41Z</time>
      </trkpt>
      <trkpt lat="50.68679" lon="4.3592">
        <ele>104.92</ele>
        <time>2018-01-07T08:52:58Z</time>
      </trkpt>
      <trkpt lat="50.68669" lon="4.35892">
        <ele>103</ele>
        <time>2018-01-07T08:53:14Z</time>
      </trkpt>
      <trkpt lat="50.6865" lon="4.35889">
        <ele>102.52</ele>
        <time>2018-01-07T08:53:30Z</time>
      </trkpt>
      <trkpt lat="50.68631" lon="4.35913">
        <ele>102.04</ele>
        <time>2018-01-07T08:53:49Z</time>
      </trkpt>
      <trkpt lat="50.68616" lon="4.35941">
        <ele>101.08</ele>
        <time>2018-01-07T08:54:06Z</time>
      </trkpt>
      <trkpt lat="50.68601" lon="4.35972">
        <ele>101.08</ele>
        <time>2018-01-07T08:54:25Z</time>
      </trkpt>
      <trkpt lat="50.68599" lon="4.36006">
        <ele>100.6</ele>
        <time>2018-01-07T08:54:43Z</time>
      </trkpt>
      <trkpt lat="50.68599" lon="4.36032">
        <ele>99.63</ele>
        <time>2018-01-07T08:54:57Z</time>
      </trkpt>
      <trkpt lat="50.68597" lon="4.36039">
        <ele>100.6</ele>
        <time>2018-01-07T08:55:01Z</time>
      </trkpt>
      <trkpt lat="50.68596" lon="4.3607">
        <ele>99.15</ele>
        <time>2018-01-07T08:55:17Z</time>
      </trkpt>
      <trkpt lat="50.68595" lon="4.36106">
        <ele>99.15</ele>
        <time>2018-01-07T08:55:35Z</time>
      </trkpt>
      <trkpt lat="50.68593" lon="4.3614">
        <ele>98.67</ele>
        <time>2018-01-07T08:55:52Z</time>
      </trkpt>
      <trkpt lat="50.68592" lon="4.36177">
        <ele>97.71</ele>
        <time>2018-01-07T08:56:11Z</time>
      </trkpt>
      <trkpt lat="50.68589" lon="4.36211">
        <ele>97.71</ele>
        <time>2018-01-07T08:56:29Z</time>
      </trkpt>
      <trkpt lat="50.68588" lon="4.36244">
        <ele>97.23</ele>
        <time>2018-01-07T08:56:45Z</time>
      </trkpt>
      <trkpt lat="50.68586" lon="4.36284">
        <ele>96.75</ele>
        <time>2018-01-07T08:57:04Z</time>
      </trkpt>
      <trkpt lat="50.68579" lon="4.36322">
        <ele>96.27</ele>
        <time>2018-01-07T08:57:23Z</time>
      </trkpt>
      <trkpt lat="50.68568" lon="4.36341">
        <ele>95.31</ele>
        <time>2018-01-07T08:57:38Z</time>
      </trkpt>
      <trkpt lat="50.68548" lon="4.36371">
        <ele>93.87</ele>
        <time>2018-01-07T08:57:59Z</time>
      </trkpt>
      <trkpt lat="50.68534" lon="4.36396">
        <ele>92.9</ele>
        <time>2018-01-07T08:58:16Z</time>
      </trkpt>
      <trkpt lat="50.68526" lon="4.3641">
        <ele>92.9</ele>
        <time>2018-01-07T08:58:27Z</time>
      </trkpt>
      <trkpt lat="50.68505" lon="4.36445">
        <ele>91.94</ele>
        <time>2018-01-07T08:58:49Z</time>
      </trkpt>
      <trkpt lat="50.68496" lon="4.36462">
        <ele>90.02</ele>
        <time>2018-01-07T08:59:04Z</time>
      </trkpt>
      <trkpt lat="50.68485" lon="4.36485">
        <ele>87.62</ele>
        <time>2018-01-07T08:59:20Z</time>
      </trkpt>
      <trkpt lat="50.68473" lon="4.36513">
        <ele>85.21</ele>
        <time>2018-01-07T08:59:38Z</time>
      </trkpt>
      <trkpt lat="50.68465" lon="4.36538">
        <ele>84.73</ele>
        <time>2018-01-07T08:59:55Z</time>
      </trkpt>
      <trkpt lat="50.68458" lon="4.36554">
        <ele>81.85</ele>
        <time>2018-01-07T09:00:10Z</time>
      </trkpt>
      <trkpt lat="50.68443" lon="4.36586">
        <ele>80.89</ele>
        <time>2018-01-07T09:00:27Z</time>
      </trkpt>
      <trkpt lat="50.68431" lon="4.36594">
        <ele>82.33</ele>
        <time>2018-01-07T09:00:39Z</time>
      </trkpt>
      <trkpt lat="50.6841" lon="4.366">
        <ele>82.33</ele>
        <time>2018-01-07T09:00:53Z</time>
      </trkpt>
      <trkpt lat="50.68406" lon="4.366">
        <ele>82.33</ele>
        <time>2018-01-07T09:00:55Z</time>
      </trkpt>
      <trkpt lat="50.68399" lon="4.36596">
        <ele>82.81</ele>
        <time>2018-01-07T09:01:00Z</time>
      </trkpt>
      <trkpt lat="50.68397" lon="4.36595">
        <ele>82.81</ele>
        <time>2018-01-07T09:01:01Z</time>
      </trkpt>
      <trkpt lat="50.68396" lon="4.36595">
        <ele>82.81</ele>
        <time>2018-01-07T09:01:02Z</time>
      </trkpt>
      <trkpt lat="50.68394" lon="4.36595">
        <ele>82.81</ele>
        <time>2018-01-07T09:01:03Z</time>
      </trkpt>
      <trkpt lat="50.68393" lon="4.36596">
        <ele>82.81</ele>
        <time>2018-01-07T09:01:04Z</time>
      </trkpt>
      <trkpt lat="50.68391" lon="4.36598">
        <ele>82.81</ele>
        <time>2018-01-07T09:01:05Z</time>
      </trkpt>
      <trkpt lat="50.6839" lon="4.36599">
        <ele>82.81</ele>
        <time>2018-01-07T09:01:06Z</time>
      </trkpt>
      <trkpt lat="50.68387" lon="4.36604">
        <ele>82.81</ele>
        <time>2018-01-07T09:01:09Z</time>
      </trkpt>
      <trkpt lat="50.68387" lon="4.36606">
        <ele>82.33</ele>
        <time>2018-01-07T09:01:10Z</time>
      </trkpt>
      <trkpt lat="50.68386" lon="4.36609">
        <ele>82.33</ele>
        <time>2018-01-07T09:01:11Z</time>
      </trkpt>
      <trkpt lat="50.68385" lon="4.36611">
        <ele>82.81</ele>
        <time>2018-01-07T09:01:12Z</time>
      </trkpt>
      <trkpt lat="50.68385" lon="4.36612">
        <ele>82.81</ele>
        <time>2018-01-07T09:01:13Z</time>
      </trkpt>
      <trkpt lat="50.6837" lon="4.36641">
        <ele>84.25</ele>
        <time>2018-01-07T09:01:31Z</time>
      </trkpt>
      <trkpt lat="50.6837" lon="4.36642">
        <ele>84.73</ele>
        <time>2018-01-07T09:01:32Z</time>
      </trkpt>
      <trkpt lat="50.68369" lon="4.36644">
        <ele>84.73</ele>
        <time>2018-01-07T09:01:33Z</time>
      </trkpt>
      <trkpt lat="50.68368" lon="4.36645">
        <ele>84.73</ele>
        <time>2018-01-07T09:01:34Z</time>
      </trkpt>
      <trkpt lat="50.68367" lon="4.36646">
        <ele>85.21</ele>
        <time>2018-01-07T09:01:35Z</time>
      </trkpt>
      <trkpt lat="50.68365" lon="4.36648">
        <ele>85.21</ele>
        <time>2018-01-07T09:01:36Z</time>
      </trkpt>
      <trkpt lat="50.68364" lon="4.36649">
        <ele>85.21</ele>
        <time>2018-01-07T09:01:37Z</time>
      </trkpt>
      <trkpt lat="50.68363" lon="4.3665">
        <ele>85.21</ele>
        <time>2018-01-07T09:01:38Z</time>
      </trkpt>
      <trkpt lat="50.68362" lon="4.36652">
        <ele>85.21</ele>
        <time>2018-01-07T09:01:39Z</time>
      </trkpt>
      <trkpt lat="50.68349" lon="4.36679">
        <ele>86.18</ele>
        <time>2018-01-07T09:01:55Z</time>
      </trkpt>
      <trkpt lat="50.68337" lon="4.36702">
        <ele>87.14</ele>
        <time>2018-01-07T09:02:10Z</time>
      </trkpt>
      <trkpt lat="50.68324" lon="4.36722">
        <ele>88.58</ele>
        <time>2018-01-07T09:02:25Z</time>
      </trkpt>
      <trkpt lat="50.6832" lon="4.36726">
        <ele>89.06</ele>
        <time>2018-01-07T09:02:30Z</time>
      </trkpt>
      <trkpt lat="50.68319" lon="4.36727">
        <ele>89.06</ele>
        <time>2018-01-07T09:02:31Z</time>
      </trkpt>
      <trkpt lat="50.68318" lon="4.36727">
        <ele>89.06</ele>
        <time>2018-01-07T09:02:32Z</time>
      </trkpt>
      <trkpt lat="50.68306" lon="4.36732">
        <ele>90.02</ele>
        <time>2018-01-07T09:02:42Z</time>
      </trkpt>
      <trkpt lat="50.68305" lon="4.36731">
        <ele>90.02</ele>
        <time>2018-01-07T09:02:43Z</time>
      </trkpt>
      <trkpt lat="50.68304" lon="4.36732">
        <ele>90.02</ele>
        <time>2018-01-07T09:02:44Z</time>
      </trkpt>
      <trkpt lat="50.68302" lon="4.36732">
        <ele>90.98</ele>
        <time>2018-01-07T09:02:45Z</time>
      </trkpt>
      <trkpt lat="50.683" lon="4.36731">
        <ele>90.98</ele>
        <time>2018-01-07T09:02:46Z</time>
      </trkpt>
      <trkpt lat="50.68283" lon="4.3673">
        <ele>91.46</ele>
        <time>2018-01-07T09:03:00Z</time>
      </trkpt>
      <trkpt lat="50.68271" lon="4.36734">
        <ele>90.02</ele>
        <time>2018-01-07T09:03:11Z</time>
      </trkpt>
      <trkpt lat="50.68268" lon="4.36738">
        <ele>90.02</ele>
        <time>2018-01-07T09:03:14Z</time>
      </trkpt>
      <trkpt lat="50.68265" lon="4.36742">
        <ele>89.54</ele>
        <time>2018-01-07T09:03:16Z</time>
      </trkpt>
      <trkpt lat="50.68263" lon="4.36743">
        <ele>90.02</ele>
        <time>2018-01-07T09:03:17Z</time>
      </trkpt>
      <trkpt lat="50.68251" lon="4.36751">
        <ele>89.54</ele>
        <time>2018-01-07T09:03:30Z</time>
      </trkpt>
      <trkpt lat="50.68249" lon="4.3675">
        <ele>89.06</ele>
        <time>2018-01-07T09:03:31Z</time>
      </trkpt>
      <trkpt lat="50.68242" lon="4.36734">
        <ele>87.62</ele>
        <time>2018-01-07T09:03:40Z</time>
      </trkpt>
      <trkpt lat="50.68241" lon="4.36728">
        <ele>87.14</ele>
        <time>2018-01-07T09:03:43Z</time>
      </trkpt>
      <trkpt lat="50.6824" lon="4.36726">
        <ele>86.66</ele>
        <time>2018-01-07T09:03:44Z</time>
      </trkpt>
      <trkpt lat="50.68239" lon="4.36725">
        <ele>86.66</ele>
        <time>2018-01-07T09:03:45Z</time>
      </trkpt>
      <trkpt lat="50.68238" lon="4.36722">
        <ele>86.66</ele>
        <time>2018-01-07T09:03:46Z</time>
      </trkpt>
      <trkpt lat="50.68237" lon="4.3672">
        <ele>86.66</ele>
        <time>2018-01-07T09:03:47Z</time>
      </trkpt>
      <trkpt lat="50.68237" lon="4.36719">
        <ele>86.66</ele>
        <time>2018-01-07T09:03:48Z</time>
      </trkpt>
      <trkpt lat="50.68233" lon="4.36709">
        <ele>85.69</ele>
        <time>2018-01-07T09:03:53Z</time>
      </trkpt>
      <trkpt lat="50.68232" lon="4.36709">
        <ele>85.69</ele>
        <time>2018-01-07T09:03:54Z</time>
      </trkpt>
      <trkpt lat="50.68231" lon="4.3671">
        <ele>85.69</ele>
        <time>2018-01-07T09:03:55Z</time>
      </trkpt>
      <trkpt lat="50.68219" lon="4.36729">
        <ele>85.69</ele>
        <time>2018-01-07T09:04:10Z</time>
      </trkpt>
      <trkpt lat="50.68199" lon="4.36753">
        <ele>85.21</ele>
        <time>2018-01-07T09:04:27Z</time>
      </trkpt>
      <trkpt lat="50.68183" lon="4.36773">
        <ele>84.73</ele>
        <time>2018-01-07T09:04:40Z</time>
      </trkpt>
      <trkpt lat="50.6817" lon="4.36795">
        <ele>84.25</ele>
        <time>2018-01-07T09:04:56Z</time>
      </trkpt>
      <trkpt lat="50.68159" lon="4.36796">
        <ele>84.25</ele>
        <time>2018-01-07T09:05:07Z</time>
      </trkpt>
      <trkpt lat="50.68157" lon="4.36796">
        <ele>84.25</ele>
        <time>2018-01-07T09:05:08Z</time>
      </trkpt>
      <trkpt lat="50.68139" lon="4.36801">
        <ele>85.69</ele>
        <time>2018-01-07T09:05:21Z</time>
      </trkpt>
      <trkpt lat="50.68139" lon="4.36801">
        <ele>85.69</ele>
        <time>2018-01-07T09:05:22Z</time>
      </trkpt>
      <trkpt lat="50.68133" lon="4.36799">
        <ele>86.18</ele>
        <time>2018-01-07T09:05:25Z</time>
      </trkpt>
      <trkpt lat="50.68131" lon="4.36799">
        <ele>86.18</ele>
        <time>2018-01-07T09:05:26Z</time>
      </trkpt>
      <trkpt lat="50.68128" lon="4.368">
        <ele>86.18</ele>
        <time>2018-01-07T09:05:27Z</time>
      </trkpt>
      <trkpt lat="50.68126" lon="4.368">
        <ele>86.18</ele>
        <time>2018-01-07T09:05:28Z</time>
      </trkpt>
      <trkpt lat="50.68114" lon="4.36787">
        <ele>86.66</ele>
        <time>2018-01-07T09:05:41Z</time>
      </trkpt>
      <trkpt lat="50.68112" lon="4.36786">
        <ele>86.66</ele>
        <time>2018-01-07T09:05:42Z</time>
      </trkpt>
      <trkpt lat="50.68111" lon="4.36785">
        <ele>86.66</ele>
        <time>2018-01-07T09:05:43Z</time>
      </trkpt>
      <trkpt lat="50.68094" lon="4.3679">
        <ele>86.66</ele>
        <time>2018-01-07T09:05:57Z</time>
      </trkpt>
      <trkpt lat="50.68074" lon="4.36796">
        <ele>86.66</ele>
        <time>2018-01-07T09:06:12Z</time>
      </trkpt>
      <trkpt lat="50.68059" lon="4.368">
        <ele>86.66</ele>
        <time>2018-01-07T09:06:25Z</time>
      </trkpt>
      <trkpt lat="50.68044" lon="4.36808">
        <ele>86.66</ele>
        <time>2018-01-07T09:06:39Z</time>
      </trkpt>
      <trkpt lat="50.68024" lon="4.3682">
        <ele>86.66</ele>
        <time>2018-01-07T09:06:54Z</time>
      </trkpt>
      <trkpt lat="50.68008" lon="4.36825">
        <ele>86.66</ele>
        <time>2018-01-07T09:07:08Z</time>
      </trkpt>
      <trkpt lat="50.67988" lon="4.36827">
        <ele>86.66</ele>
        <time>2018-01-07T09:07:21Z</time>
      </trkpt>
      <trkpt lat="50.67965" lon="4.36829">
        <ele>87.62</ele>
        <time>2018-01-07T09:07:38Z</time>
      </trkpt>
      <trkpt lat="50.67947" lon="4.36823">
        <ele>87.62</ele>
        <time>2018-01-07T09:07:54Z</time>
      </trkpt>
      <trkpt lat="50.6794" lon="4.36824">
        <ele>87.62</ele>
        <time>2018-01-07T09:07:59Z</time>
      </trkpt>
      <trkpt lat="50.67939" lon="4.36823">
        <ele>87.62</ele>
        <time>2018-01-07T09:08:00Z</time>
      </trkpt>
      <trkpt lat="50.67938" lon="4.36823">
        <ele>87.62</ele>
        <time>2018-01-07T09:08:01Z</time>
      </trkpt>
      <trkpt lat="50.67937" lon="4.36823">
        <ele>87.62</ele>
        <time>2018-01-07T09:08:02Z</time>
      </trkpt>
      <trkpt lat="50.67935" lon="4.36822">
        <ele>87.62</ele>
        <time>2018-01-07T09:08:03Z</time>
      </trkpt>
      <trkpt lat="50.67909" lon="4.36816">
        <ele>86.66</ele>
        <time>2018-01-07T09:08:21Z</time>
      </trkpt>
      <trkpt lat="50.67886" lon="4.36811">
        <ele>86.66</ele>
        <time>2018-01-07T09:08:39Z</time>
      </trkpt>
      <trkpt lat="50.6788" lon="4.36807">
        <ele>86.66</ele>
        <time>2018-01-07T09:08:45Z</time>
      </trkpt>
      <trkpt lat="50.67879" lon="4.36806">
        <ele>86.66</ele>
        <time>2018-01-07T09:08:46Z</time>
      </trkpt>
      <trkpt lat="50.67878" lon="4.36805">
        <ele>86.66</ele>
        <time>2018-01-07T09:08:47Z</time>
      </trkpt>
      <trkpt lat="50.67877" lon="4.36804">
        <ele>86.66</ele>
        <time>2018-01-07T09:08:48Z</time>
      </trkpt>
      <trkpt lat="50.67861" lon="4.36788">
        <ele>86.18</ele>
        <time>2018-01-07T09:09:02Z</time>
      </trkpt>
      <trkpt lat="50.67845" lon="4.36771">
        <ele>86.18</ele>
        <time>2018-01-07T09:09:17Z</time>
      </trkpt>
      <trkpt lat="50.67827" lon="4.36753">
        <ele>86.18</ele>
        <time>2018-01-07T09:09:33Z</time>
      </trkpt>
      <trkpt lat="50.67804" lon="4.36737">
        <ele>86.18</ele>
        <time>2018-01-07T09:09:51Z</time>
      </trkpt>
      <trkpt lat="50.67798" lon="4.36731">
        <ele>86.18</ele>
        <time>2018-01-07T09:09:57Z</time>
      </trkpt>
      <trkpt lat="50.67797" lon="4.36729">
        <ele>86.18</ele>
        <time>2018-01-07T09:09:58Z</time>
      </trkpt>
      <trkpt lat="50.67795" lon="4.36728">
        <ele>86.18</ele>
        <time>2018-01-07T09:09:59Z</time>
      </trkpt>
      <trkpt lat="50.67782" lon="4.36718">
        <ele>87.62</ele>
        <time>2018-01-07T09:10:10Z</time>
      </trkpt>
      <trkpt lat="50.67763" lon="4.36708">
        <ele>88.1</ele>
        <time>2018-01-07T09:10:27Z</time>
      </trkpt>
      <trkpt lat="50.6774" lon="4.36719">
        <ele>90.5</ele>
        <time>2018-01-07T09:10:45Z</time>
      </trkpt>
      <trkpt lat="50.67737" lon="4.36718">
        <ele>90.5</ele>
        <time>2018-01-07T09:10:47Z</time>
      </trkpt>
      <trkpt lat="50.67735" lon="4.36714">
        <ele>89.06</ele>
        <time>2018-01-07T09:10:50Z</time>
      </trkpt>
      <trkpt lat="50.67715" lon="4.36692">
        <ele>89.06</ele>
        <time>2018-01-07T09:11:08Z</time>
      </trkpt>
      <trkpt lat="50.67685" lon="4.36681">
        <ele>89.06</ele>
        <time>2018-01-07T09:11:31Z</time>
      </trkpt>
      <trkpt lat="50.67662" lon="4.36663">
        <ele>88.1</ele>
        <time>2018-01-07T09:11:50Z</time>
      </trkpt>
      <trkpt lat="50.67657" lon="4.3666">
        <ele>89.54</ele>
        <time>2018-01-07T09:11:54Z</time>
      </trkpt>
      <trkpt lat="50.67642" lon="4.36646">
        <ele>89.54</ele>
        <time>2018-01-07T09:12:08Z</time>
      </trkpt>
      <trkpt lat="50.67624" lon="4.36625">
        <ele>89.54</ele>
        <time>2018-01-07T09:12:24Z</time>
      </trkpt>
      <trkpt lat="50.676" lon="4.36602">
        <ele>89.54</ele>
        <time>2018-01-07T09:12:45Z</time>
      </trkpt>
      <trkpt lat="50.67583" lon="4.36584">
        <ele>88.58</ele>
        <time>2018-01-07T09:13:01Z</time>
      </trkpt>
      <trkpt lat="50.67558" lon="4.36563">
        <ele>89.54</ele>
        <time>2018-01-07T09:13:21Z</time>
      </trkpt>
      <trkpt lat="50.6755" lon="4.36549">
        <ele>89.54</ele>
        <time>2018-01-07T09:13:31Z</time>
      </trkpt>
      <trkpt lat="50.67557" lon="4.36519">
        <ele>89.54</ele>
        <time>2018-01-07T09:13:46Z</time>
      </trkpt>
      <trkpt lat="50.67572" lon="4.36497">
        <ele>89.54</ele>
        <time>2018-01-07T09:14:02Z</time>
      </trkpt>
      <trkpt lat="50.67576" lon="4.36488">
        <ele>88.58</ele>
        <time>2018-01-07T09:14:08Z</time>
      </trkpt>
      <trkpt lat="50.67569" lon="4.36476">
        <ele>88.58</ele>
        <time>2018-01-07T09:14:16Z</time>
      </trkpt>
      <trkpt lat="50.6754" lon="4.3647">
        <ele>88.58</ele>
        <time>2018-01-07T09:14:38Z</time>
      </trkpt>
      <trkpt lat="50.67516" lon="4.36464">
        <ele>88.58</ele>
        <time>2018-01-07T09:14:57Z</time>
      </trkpt>
      <trkpt lat="50.67487" lon="4.36462">
        <ele>88.58</ele>
        <time>2018-01-07T09:15:17Z</time>
      </trkpt>
      <trkpt lat="50.6746" lon="4.36451">
        <ele>88.58</ele>
        <time>2018-01-07T09:15:38Z</time>
      </trkpt>
      <trkpt lat="50.67442" lon="4.36451">
        <ele>88.58</ele>
        <time>2018-01-07T09:15:55Z</time>
      </trkpt>
      <trkpt lat="50.67431" lon="4.3644">
        <ele>90.02</ele>
        <time>2018-01-07T09:16:05Z</time>
      </trkpt>
      <trkpt lat="50.67415" lon="4.36414">
        <ele>90.02</ele>
        <time>2018-01-07T09:16:21Z</time>
      </trkpt>
      <trkpt lat="50.67404" lon="4.36384">
        <ele>90.5</ele>
        <time>2018-01-07T09:16:37Z</time>
      </trkpt>
      <trkpt lat="50.67389" lon="4.36369">
        <ele>91.94</ele>
        <time>2018-01-07T09:16:52Z</time>
      </trkpt>
      <trkpt lat="50.67375" lon="4.36373">
        <ele>93.39</ele>
        <time>2018-01-07T09:17:05Z</time>
      </trkpt>
      <trkpt lat="50.67372" lon="4.36377">
        <ele>92.9</ele>
        <time>2018-01-07T09:17:14Z</time>
      </trkpt>
      <trkpt lat="50.67369" lon="4.3638">
        <ele>92.9</ele>
        <time>2018-01-07T09:17:17Z</time>
      </trkpt>
      <trkpt lat="50.67365" lon="4.36418">
        <ele>90.5</ele>
        <time>2018-01-07T09:17:37Z</time>
      </trkpt>
      <trkpt lat="50.67359" lon="4.36454">
        <ele>88.58</ele>
        <time>2018-01-07T09:17:54Z</time>
      </trkpt>
      <trkpt lat="50.67354" lon="4.36498">
        <ele>89.06</ele>
        <time>2018-01-07T09:18:14Z</time>
      </trkpt>
      <trkpt lat="50.67359" lon="4.36532">
        <ele>89.54</ele>
        <time>2018-01-07T09:18:31Z</time>
      </trkpt>
      <trkpt lat="50.67365" lon="4.36561">
        <ele>88.1</ele>
        <time>2018-01-07T09:18:45Z</time>
      </trkpt>
      <trkpt lat="50.67377" lon="4.36595">
        <ele>88.1</ele>
        <time>2018-01-07T09:19:04Z</time>
      </trkpt>
      <trkpt lat="50.67398" lon="4.36604">
        <ele>88.1</ele>
        <time>2018-01-07T09:19:21Z</time>
      </trkpt>
      <trkpt lat="50.67426" lon="4.36612">
        <ele>88.1</ele>
        <time>2018-01-07T09:19:41Z</time>
      </trkpt>
      <trkpt lat="50.67444" lon="4.36625">
        <ele>88.1</ele>
        <time>2018-01-07T09:19:56Z</time>
      </trkpt>
      <trkpt lat="50.67449" lon="4.36628">
        <ele>88.1</ele>
        <time>2018-01-07T09:20:00Z</time>
      </trkpt>
      <trkpt lat="50.67472" lon="4.36635">
        <ele>87.62</ele>
        <time>2018-01-07T09:20:18Z</time>
      </trkpt>
      <trkpt lat="50.67486" lon="4.36654">
        <ele>87.62</ele>
        <time>2018-01-07T09:20:33Z</time>
      </trkpt>
      <trkpt lat="50.67502" lon="4.36694">
        <ele>87.62</ele>
        <time>2018-01-07T09:20:53Z</time>
      </trkpt>
      <trkpt lat="50.67515" lon="4.36726">
        <ele>87.62</ele>
        <time>2018-01-07T09:21:10Z</time>
      </trkpt>
      <trkpt lat="50.67537" lon="4.36752">
        <ele>87.62</ele>
        <time>2018-01-07T09:21:30Z</time>
      </trkpt>
      <trkpt lat="50.67541" lon="4.36772">
        <ele>87.62</ele>
        <time>2018-01-07T09:21:40Z</time>
      </trkpt>
      <trkpt lat="50.67525" lon="4.36781">
        <ele>87.62</ele>
        <time>2018-01-07T09:21:54Z</time>
      </trkpt>
      <trkpt lat="50.6751" lon="4.36807">
        <ele>90.5</ele>
        <time>2018-01-07T09:22:10Z</time>
      </trkpt>
      <trkpt lat="50.67497" lon="4.36835">
        <ele>91.94</ele>
        <time>2018-01-07T09:22:28Z</time>
      </trkpt>
      <trkpt lat="50.67488" lon="4.36855">
        <ele>93.39</ele>
        <time>2018-01-07T09:22:40Z</time>
      </trkpt>
      <trkpt lat="50.67473" lon="4.36843">
        <ele>92.9</ele>
        <time>2018-01-07T09:22:54Z</time>
      </trkpt>
      <trkpt lat="50.6747" lon="4.36837">
        <ele>92.9</ele>
        <time>2018-01-07T09:22:58Z</time>
      </trkpt>
      <trkpt lat="50.67461" lon="4.36823">
        <ele>93.39</ele>
        <time>2018-01-07T09:23:09Z</time>
      </trkpt>
      <trkpt lat="50.67438" lon="4.36812">
        <ele>94.35</ele>
        <time>2018-01-07T09:23:26Z</time>
      </trkpt>
      <trkpt lat="50.67417" lon="4.36805">
        <ele>94.83</ele>
        <time>2018-01-07T09:23:41Z</time>
      </trkpt>
      <trkpt lat="50.67406" lon="4.36799">
        <ele>94.83</ele>
        <time>2018-01-07T09:23:50Z</time>
      </trkpt>
      <trkpt lat="50.67392" lon="4.36799">
        <ele>95.79</ele>
        <time>2018-01-07T09:24:02Z</time>
      </trkpt>
      <trkpt lat="50.67388" lon="4.36813">
        <ele>97.71</ele>
        <time>2018-01-07T09:24:17Z</time>
      </trkpt>
      <trkpt lat="50.67388" lon="4.36832">
        <ele>98.19</ele>
        <time>2018-01-07T09:24:30Z</time>
      </trkpt>
      <trkpt lat="50.67385" lon="4.36854">
        <ele>99.15</ele>
        <time>2018-01-07T09:24:45Z</time>
      </trkpt>
      <trkpt lat="50.67379" lon="4.3688">
        <ele>99.15</ele>
        <time>2018-01-07T09:24:58Z</time>
      </trkpt>
      <trkpt lat="50.67378" lon="4.36885">
        <ele>99.15</ele>
        <time>2018-01-07T09:25:01Z</time>
      </trkpt>
      <trkpt lat="50.67374" lon="4.36905">
        <ele>100.6</ele>
        <time>2018-01-07T09:25:10Z</time>
      </trkpt>
      <trkpt lat="50.67367" lon="4.3694">
        <ele>102.04</ele>
        <time>2018-01-07T09:25:25Z</time>
      </trkpt>
      <trkpt lat="50.67362" lon="4.36964">
        <ele>103</ele>
        <time>2018-01-07T09:25:38Z</time>
      </trkpt>
      <trkpt lat="50.6736" lon="4.3698">
        <ele>103.48</ele>
        <time>2018-01-07T09:25:49Z</time>
      </trkpt>
      <trkpt lat="50.67354" lon="4.36994">
        <ele>103.96</ele>
        <time>2018-01-07T09:26:00Z</time>
      </trkpt>
      <trkpt lat="50.67356" lon="4.37008">
        <ele>103.96</ele>
        <time>2018-01-07T09:26:08Z</time>
      </trkpt>
      <trkpt lat="50.67347" lon="4.37036">
        <ele>103.96</ele>
        <time>2018-01-07T09:26:22Z</time>
      </trkpt>
      <trkpt lat="50.67343" lon="4.37056">
        <ele>104.92</ele>
        <time>2018-01-07T09:26:32Z</time>
      </trkpt>
      <trkpt lat="50.67344" lon="4.37061">
        <ele>104.92</ele>
        <time>2018-01-07T09:26:35Z</time>
      </trkpt>
      <trkpt lat="50.67346" lon="4.37064">
        <ele>104.92</ele>
        <time>2018-01-07T09:26:36Z</time>
      </trkpt>
      <trkpt lat="50.67347" lon="4.37067">
        <ele>104.92</ele>
        <time>2018-01-07T09:26:37Z</time>
      </trkpt>
      <trkpt lat="50.67347" lon="4.37069">
        <ele>104.92</ele>
        <time>2018-01-07T09:26:38Z</time>
      </trkpt>
      <trkpt lat="50.67346" lon="4.37073">
        <ele>104.92</ele>
        <time>2018-01-07T09:26:40Z</time>
      </trkpt>
      <trkpt lat="50.67343" lon="4.37081">
        <ele>105.4</ele>
        <time>2018-01-07T09:26:44Z</time>
      </trkpt>
      <trkpt lat="50.67343" lon="4.37083">
        <ele>105.4</ele>
        <time>2018-01-07T09:26:45Z</time>
      </trkpt>
      <trkpt lat="50.67342" lon="4.37085">
        <ele>105.4</ele>
        <time>2018-01-07T09:26:46Z</time>
      </trkpt>
      <trkpt lat="50.67341" lon="4.37087">
        <ele>105.4</ele>
        <time>2018-01-07T09:26:47Z</time>
      </trkpt>
      <trkpt lat="50.6734" lon="4.37089">
        <ele>105.4</ele>
        <time>2018-01-07T09:26:48Z</time>
      </trkpt>
      <trkpt lat="50.67336" lon="4.37107">
        <ele>105.4</ele>
        <time>2018-01-07T09:26:59Z</time>
      </trkpt>
      <trkpt lat="50.67336" lon="4.37109">
        <ele>105.4</ele>
        <time>2018-01-07T09:27:00Z</time>
      </trkpt>
      <trkpt lat="50.67335" lon="4.37111">
        <ele>105.4</ele>
        <time>2018-01-07T09:27:01Z</time>
      </trkpt>
      <trkpt lat="50.67334" lon="4.37113">
        <ele>105.4</ele>
        <time>2018-01-07T09:27:02Z</time>
      </trkpt>
      <trkpt lat="50.67334" lon="4.37115">
        <ele>105.4</ele>
        <time>2018-01-07T09:27:03Z</time>
      </trkpt>
      <trkpt lat="50.67333" lon="4.3712">
        <ele>105.4</ele>
        <time>2018-01-07T09:27:06Z</time>
      </trkpt>
      <trkpt lat="50.67332" lon="4.37136">
        <ele>105.88</ele>
        <time>2018-01-07T09:27:17Z</time>
      </trkpt>
      <trkpt lat="50.67332" lon="4.37149">
        <ele>105.88</ele>
        <time>2018-01-07T09:27:24Z</time>
      </trkpt>
      <trkpt lat="50.67331" lon="4.3715">
        <ele>106.36</ele>
        <time>2018-01-07T09:27:25Z</time>
      </trkpt>
      <trkpt lat="50.67331" lon="4.37152">
        <ele>106.36</ele>
        <time>2018-01-07T09:27:26Z</time>
      </trkpt>
      <trkpt lat="50.6733" lon="4.37163">
        <ele>106.36</ele>
        <time>2018-01-07T09:27:32Z</time>
      </trkpt>
      <trkpt lat="50.67329" lon="4.37176">
        <ele>106.36</ele>
        <time>2018-01-07T09:27:39Z</time>
      </trkpt>
      <trkpt lat="50.67341" lon="4.37203">
        <ele>103.96</ele>
        <time>2018-01-07T09:27:54Z</time>
      </trkpt>
      <trkpt lat="50.67346" lon="4.37236">
        <ele>102.52</ele>
        <time>2018-01-07T09:28:10Z</time>
      </trkpt>
      <trkpt lat="50.67346" lon="4.37268">
        <ele>100.11</ele>
        <time>2018-01-07T09:28:25Z</time>
      </trkpt>
      <trkpt lat="50.67345" lon="4.37272">
        <ele>100.11</ele>
        <time>2018-01-07T09:28:27Z</time>
      </trkpt>
      <trkpt lat="50.67345" lon="4.37274">
        <ele>99.63</ele>
        <time>2018-01-07T09:28:28Z</time>
      </trkpt>
      <trkpt lat="50.67345" lon="4.37276">
        <ele>99.63</ele>
        <time>2018-01-07T09:28:29Z</time>
      </trkpt>
      <trkpt lat="50.67344" lon="4.37278">
        <ele>99.15</ele>
        <time>2018-01-07T09:28:30Z</time>
      </trkpt>
      <trkpt lat="50.67344" lon="4.3728">
        <ele>99.15</ele>
        <time>2018-01-07T09:28:31Z</time>
      </trkpt>
      <trkpt lat="50.67343" lon="4.37282">
        <ele>99.15</ele>
        <time>2018-01-07T09:28:32Z</time>
      </trkpt>
      <trkpt lat="50.67343" lon="4.37284">
        <ele>99.15</ele>
        <time>2018-01-07T09:28:33Z</time>
      </trkpt>
      <trkpt lat="50.67343" lon="4.37286">
        <ele>98.19</ele>
        <time>2018-01-07T09:28:34Z</time>
      </trkpt>
      <trkpt lat="50.67342" lon="4.37287">
        <ele>97.71</ele>
        <time>2018-01-07T09:28:35Z</time>
      </trkpt>
      <trkpt lat="50.67343" lon="4.37295">
        <ele>97.23</ele>
        <time>2018-01-07T09:28:39Z</time>
      </trkpt>
      <trkpt lat="50.67349" lon="4.37317">
        <ele>96.75</ele>
        <time>2018-01-07T09:28:51Z</time>
      </trkpt>
      <trkpt lat="50.67356" lon="4.37327">
        <ele>96.27</ele>
        <time>2018-01-07T09:28:58Z</time>
      </trkpt>
      <trkpt lat="50.67357" lon="4.37327">
        <ele>96.27</ele>
        <time>2018-01-07T09:28:59Z</time>
      </trkpt>
      <trkpt lat="50.67384" lon="4.37322">
        <ele>95.79</ele>
        <time>2018-01-07T09:29:15Z</time>
      </trkpt>
      <trkpt lat="50.67402" lon="4.3732">
        <ele>94.35</ele>
        <time>2018-01-07T09:29:29Z</time>
      </trkpt>
      <trkpt lat="50.67423" lon="4.37312">
        <ele>93.87</ele>
        <time>2018-01-07T09:29:46Z</time>
      </trkpt>
      <trkpt lat="50.6744" lon="4.37309">
        <ele>93.87</ele>
        <time>2018-01-07T09:29:56Z</time>
      </trkpt>
      <trkpt lat="50.67442" lon="4.37309">
        <ele>93.87</ele>
        <time>2018-01-07T09:29:57Z</time>
      </trkpt>
      <trkpt lat="50.67465" lon="4.37305">
        <ele>93.39</ele>
        <time>2018-01-07T09:30:13Z</time>
      </trkpt>
      <trkpt lat="50.67485" lon="4.37298">
        <ele>93.39</ele>
        <time>2018-01-07T09:30:27Z</time>
      </trkpt>
      <trkpt lat="50.67502" lon="4.37295">
        <ele>94.35</ele>
        <time>2018-01-07T09:30:40Z</time>
      </trkpt>
      <trkpt lat="50.67525" lon="4.37295">
        <ele>95.31</ele>
        <time>2018-01-07T09:30:57Z</time>
      </trkpt>
      <trkpt lat="50.67545" lon="4.37303">
        <ele>97.23</ele>
        <time>2018-01-07T09:31:13Z</time>
      </trkpt>
      <trkpt lat="50.67566" lon="4.37314">
        <ele>98.19</ele>
        <time>2018-01-07T09:31:30Z</time>
      </trkpt>
      <trkpt lat="50.67582" lon="4.37324">
        <ele>99.63</ele>
        <time>2018-01-07T09:31:43Z</time>
      </trkpt>
      <trkpt lat="50.676" lon="4.37334">
        <ele>100.6</ele>
        <time>2018-01-07T09:31:57Z</time>
      </trkpt>
      <trkpt lat="50.67608" lon="4.37336">
        <ele>100.6</ele>
        <time>2018-01-07T09:32:04Z</time>
      </trkpt>
      <trkpt lat="50.6761" lon="4.37337">
        <ele>100.6</ele>
        <time>2018-01-07T09:32:06Z</time>
      </trkpt>
      <trkpt lat="50.67626" lon="4.37348">
        <ele>102.04</ele>
        <time>2018-01-07T09:32:20Z</time>
      </trkpt>
      <trkpt lat="50.67645" lon="4.37358">
        <ele>103.48</ele>
        <time>2018-01-07T09:32:33Z</time>
      </trkpt>
      <trkpt lat="50.6766" lon="4.37362">
        <ele>104.44</ele>
        <time>2018-01-07T09:32:44Z</time>
      </trkpt>
      <trkpt lat="50.67679" lon="4.37367">
        <ele>105.88</ele>
        <time>2018-01-07T09:33:00Z</time>
      </trkpt>
      <trkpt lat="50.67697" lon="4.3737">
        <ele>106.36</ele>
        <time>2018-01-07T09:33:15Z</time>
      </trkpt>
      <trkpt lat="50.6772" lon="4.37366">
        <ele>106.36</ele>
        <time>2018-01-07T09:33:31Z</time>
      </trkpt>
      <trkpt lat="50.67739" lon="4.37364">
        <ele>106.36</ele>
        <time>2018-01-07T09:33:43Z</time>
      </trkpt>
      <trkpt lat="50.67755" lon="4.37346">
        <ele>105.4</ele>
        <time>2018-01-07T09:33:57Z</time>
      </trkpt>
      <trkpt lat="50.67758" lon="4.37345">
        <ele>104.44</ele>
        <time>2018-01-07T09:34:00Z</time>
      </trkpt>
      <trkpt lat="50.67759" lon="4.37347">
        <ele>103.96</ele>
        <time>2018-01-07T09:34:02Z</time>
      </trkpt>
      <trkpt lat="50.67759" lon="4.37349">
        <ele>104.44</ele>
        <time>2018-01-07T09:34:03Z</time>
      </trkpt>
      <trkpt lat="50.67759" lon="4.3736">
        <ele>105.4</ele>
        <time>2018-01-07T09:34:09Z</time>
      </trkpt>
      <trkpt lat="50.67756" lon="4.37371">
        <ele>105.4</ele>
        <time>2018-01-07T09:34:16Z</time>
      </trkpt>
      <trkpt lat="50.67755" lon="4.37373">
        <ele>105.4</ele>
        <time>2018-01-07T09:34:17Z</time>
      </trkpt>
      <trkpt lat="50.67754" lon="4.37374">
        <ele>105.4</ele>
        <time>2018-01-07T09:34:18Z</time>
      </trkpt>
      <trkpt lat="50.67752" lon="4.37377">
        <ele>105.4</ele>
        <time>2018-01-07T09:34:20Z</time>
      </trkpt>
      <trkpt lat="50.67752" lon="4.37378">
        <ele>105.4</ele>
        <time>2018-01-07T09:34:21Z</time>
      </trkpt>
      <trkpt lat="50.67751" lon="4.37379">
        <ele>105.4</ele>
        <time>2018-01-07T09:34:22Z</time>
      </trkpt>
      <trkpt lat="50.67748" lon="4.37383">
        <ele>105.88</ele>
        <time>2018-01-07T09:34:25Z</time>
      </trkpt>
      <trkpt lat="50.67747" lon="4.37384">
        <ele>105.88</ele>
        <time>2018-01-07T09:34:26Z</time>
      </trkpt>
      <trkpt lat="50.67726" lon="4.374">
        <ele>106.84</ele>
        <time>2018-01-07T09:34:42Z</time>
      </trkpt>
      <trkpt lat="50.6771" lon="4.37427">
        <ele>104.44</ele>
        <time>2018-01-07T09:34:58Z</time>
      </trkpt>
      <trkpt lat="50.67702" lon="4.3744">
        <ele>104.44</ele>
        <time>2018-01-07T09:35:06Z</time>
      </trkpt>
      <trkpt lat="50.67701" lon="4.3744">
        <ele>104.44</ele>
        <time>2018-01-07T09:35:07Z</time>
      </trkpt>
      <trkpt lat="50.67699" lon="4.37441">
        <ele>104.44</ele>
        <time>2018-01-07T09:35:08Z</time>
      </trkpt>
      <trkpt lat="50.6769" lon="4.37445">
        <ele>103.96</ele>
        <time>2018-01-07T09:35:15Z</time>
      </trkpt>
      <trkpt lat="50.67689" lon="4.37446">
        <ele>103.96</ele>
        <time>2018-01-07T09:35:16Z</time>
      </trkpt>
      <trkpt lat="50.67682" lon="4.37457">
        <ele>103.48</ele>
        <time>2018-01-07T09:35:24Z</time>
      </trkpt>
      <trkpt lat="50.67666" lon="4.37476">
        <ele>103</ele>
        <time>2018-01-07T09:35:40Z</time>
      </trkpt>
      <trkpt lat="50.67665" lon="4.37478">
        <ele>103</ele>
        <time>2018-01-07T09:35:41Z</time>
      </trkpt>
      <trkpt lat="50.67662" lon="4.37485">
        <ele>104.44</ele>
        <time>2018-01-07T09:35:45Z</time>
      </trkpt>
      <trkpt lat="50.6766" lon="4.37495">
        <ele>105.88</ele>
        <time>2018-01-07T09:35:50Z</time>
      </trkpt>
      <trkpt lat="50.67661" lon="4.37513">
        <ele>106.36</ele>
        <time>2018-01-07T09:36:03Z</time>
      </trkpt>
      <trkpt lat="50.67662" lon="4.37519">
        <ele>106.36</ele>
        <time>2018-01-07T09:36:06Z</time>
      </trkpt>
      <trkpt lat="50.67665" lon="4.37533">
        <ele>108.29</ele>
        <time>2018-01-07T09:36:15Z</time>
      </trkpt>
      <trkpt lat="50.6766" lon="4.37552">
        <ele>106.36</ele>
        <time>2018-01-07T09:36:26Z</time>
      </trkpt>
      <trkpt lat="50.67659" lon="4.37554">
        <ele>105.88</ele>
        <time>2018-01-07T09:36:27Z</time>
      </trkpt>
      <trkpt lat="50.67657" lon="4.37557">
        <ele>109.73</ele>
        <time>2018-01-07T09:36:29Z</time>
      </trkpt>
      <trkpt lat="50.67657" lon="4.37559">
        <ele>109.73</ele>
        <time>2018-01-07T09:36:30Z</time>
      </trkpt>
      <trkpt lat="50.67655" lon="4.37563">
        <ele>107.32</ele>
        <time>2018-01-07T09:36:32Z</time>
      </trkpt>
      <trkpt lat="50.67647" lon="4.3759">
        <ele>106.84</ele>
        <time>2018-01-07T09:36:45Z</time>
      </trkpt>
      <trkpt lat="50.67643" lon="4.37609">
        <ele>106.84</ele>
        <time>2018-01-07T09:36:54Z</time>
      </trkpt>
      <trkpt lat="50.67643" lon="4.37611">
        <ele>106.36</ele>
        <time>2018-01-07T09:36:55Z</time>
      </trkpt>
      <trkpt lat="50.67639" lon="4.37628">
        <ele>105.88</ele>
        <time>2018-01-07T09:37:06Z</time>
      </trkpt>
      <trkpt lat="50.67633" lon="4.37657">
        <ele>105.4</ele>
        <time>2018-01-07T09:37:20Z</time>
      </trkpt>
      <trkpt lat="50.67617" lon="4.37677">
        <ele>104.92</ele>
        <time>2018-01-07T09:37:35Z</time>
      </trkpt>
      <trkpt lat="50.67607" lon="4.37684">
        <ele>104.44</ele>
        <time>2018-01-07T09:37:41Z</time>
      </trkpt>
      <trkpt lat="50.67599" lon="4.37684">
        <ele>103.48</ele>
        <time>2018-01-07T09:37:53Z</time>
      </trkpt>
      <trkpt lat="50.67593" lon="4.37692">
        <ele>103.48</ele>
        <time>2018-01-07T09:37:58Z</time>
      </trkpt>
      <trkpt lat="50.67579" lon="4.37691">
        <ele>103.48</ele>
        <time>2018-01-07T09:38:07Z</time>
      </trkpt>
      <trkpt lat="50.67574" lon="4.3769">
        <ele>103.48</ele>
        <time>2018-01-07T09:38:12Z</time>
      </trkpt>
      <trkpt lat="50.67566" lon="4.37704">
        <ele>103.48</ele>
        <time>2018-01-07T09:38:22Z</time>
      </trkpt>
      <trkpt lat="50.67559" lon="4.37728">
        <ele>103</ele>
        <time>2018-01-07T09:38:38Z</time>
      </trkpt>
      <trkpt lat="50.67558" lon="4.37732">
        <ele>104.44</ele>
        <time>2018-01-07T09:38:41Z</time>
      </trkpt>
      <trkpt lat="50.67553" lon="4.37751">
        <ele>104.92</ele>
        <time>2018-01-07T09:38:55Z</time>
      </trkpt>
      <trkpt lat="50.67545" lon="4.37773">
        <ele>106.36</ele>
        <time>2018-01-07T09:39:08Z</time>
      </trkpt>
      <trkpt lat="50.67543" lon="4.37785">
        <ele>106.84</ele>
        <time>2018-01-07T09:39:13Z</time>
      </trkpt>
      <trkpt lat="50.67549" lon="4.37811">
        <ele>107.81</ele>
        <time>2018-01-07T09:39:27Z</time>
      </trkpt>
      <trkpt lat="50.67549" lon="4.37828">
        <ele>108.77</ele>
        <time>2018-01-07T09:39:35Z</time>
      </trkpt>
      <trkpt lat="50.67544" lon="4.37852">
        <ele>108.77</ele>
        <time>2018-01-07T09:39:50Z</time>
      </trkpt>
      <trkpt lat="50.67543" lon="4.37864">
        <ele>108.77</ele>
        <time>2018-01-07T09:39:58Z</time>
      </trkpt>
      <trkpt lat="50.67544" lon="4.37892">
        <ele>109.73</ele>
        <time>2018-01-07T09:40:11Z</time>
      </trkpt>
      <trkpt lat="50.67543" lon="4.37902">
        <ele>110.21</ele>
        <time>2018-01-07T09:40:16Z</time>
      </trkpt>
      <trkpt lat="50.67536" lon="4.37932">
        <ele>110.69</ele>
        <time>2018-01-07T09:40:29Z</time>
      </trkpt>
      <trkpt lat="50.6753" lon="4.37965">
        <ele>111.17</ele>
        <time>2018-01-07T09:40:45Z</time>
      </trkpt>
      <trkpt lat="50.6753" lon="4.37969">
        <ele>111.17</ele>
        <time>2018-01-07T09:40:47Z</time>
      </trkpt>
      <trkpt lat="50.67534" lon="4.38003">
        <ele>112.61</ele>
        <time>2018-01-07T09:41:03Z</time>
      </trkpt>
      <trkpt lat="50.67541" lon="4.38025">
        <ele>113.57</ele>
        <time>2018-01-07T09:41:16Z</time>
      </trkpt>
      <trkpt lat="50.67542" lon="4.3803">
        <ele>114.05</ele>
        <time>2018-01-07T09:41:19Z</time>
      </trkpt>
      <trkpt lat="50.67554" lon="4.38044">
        <ele>115.5</ele>
        <time>2018-01-07T09:41:33Z</time>
      </trkpt>
      <trkpt lat="50.67558" lon="4.38055">
        <ele>115.5</ele>
        <time>2018-01-07T09:41:41Z</time>
      </trkpt>
      <trkpt lat="50.67568" lon="4.3808">
        <ele>115.98</ele>
        <time>2018-01-07T09:41:57Z</time>
      </trkpt>
      <trkpt lat="50.6757" lon="4.38087">
        <ele>116.46</ele>
        <time>2018-01-07T09:42:01Z</time>
      </trkpt>
      <trkpt lat="50.67582" lon="4.38108">
        <ele>116.46</ele>
        <time>2018-01-07T09:42:16Z</time>
      </trkpt>
      <trkpt lat="50.67588" lon="4.38136">
        <ele>116.94</ele>
        <time>2018-01-07T09:42:32Z</time>
      </trkpt>
      <trkpt lat="50.67592" lon="4.38162">
        <ele>117.42</ele>
        <time>2018-01-07T09:42:47Z</time>
      </trkpt>
      <trkpt lat="50.67598" lon="4.38167">
        <ele>117.42</ele>
        <time>2018-01-07T09:42:53Z</time>
      </trkpt>
      <trkpt lat="50.67606" lon="4.3817">
        <ele>116.94</ele>
        <time>2018-01-07T09:42:56Z</time>
      </trkpt>
      <trkpt lat="50.67632" lon="4.38165">
        <ele>117.42</ele>
        <time>2018-01-07T09:43:11Z</time>
      </trkpt>
      <trkpt lat="50.67649" lon="4.38153">
        <ele>117.9</ele>
        <time>2018-01-07T09:43:23Z</time>
      </trkpt>
      <trkpt lat="50.67672" lon="4.38134">
        <ele>117.9</ele>
        <time>2018-01-07T09:43:41Z</time>
      </trkpt>
      <trkpt lat="50.67675" lon="4.38132">
        <ele>116.46</ele>
        <time>2018-01-07T09:43:43Z</time>
      </trkpt>
      <trkpt lat="50.67693" lon="4.38116">
        <ele>118.38</ele>
        <time>2018-01-07T09:43:58Z</time>
      </trkpt>
      <trkpt lat="50.67713" lon="4.38098">
        <ele>118.86</ele>
        <time>2018-01-07T09:44:15Z</time>
      </trkpt>
      <trkpt lat="50.67727" lon="4.38085">
        <ele>118.86</ele>
        <time>2018-01-07T09:44:27Z</time>
      </trkpt>
      <trkpt lat="50.67731" lon="4.38086">
        <ele>117.42</ele>
        <time>2018-01-07T09:44:31Z</time>
      </trkpt>
      <trkpt lat="50.67734" lon="4.38087">
        <ele>117.42</ele>
        <time>2018-01-07T09:44:34Z</time>
      </trkpt>
      <trkpt lat="50.67734" lon="4.38091">
        <ele>117.42</ele>
        <time>2018-01-07T09:44:37Z</time>
      </trkpt>
      <trkpt lat="50.67736" lon="4.38105">
        <ele>117.42</ele>
        <time>2018-01-07T09:44:44Z</time>
      </trkpt>
      <trkpt lat="50.67734" lon="4.38127">
        <ele>117.42</ele>
        <time>2018-01-07T09:44:53Z</time>
      </trkpt>
      <trkpt lat="50.67734" lon="4.38143">
        <ele>116.94</ele>
        <time>2018-01-07T09:45:01Z</time>
      </trkpt>
      <trkpt lat="50.67733" lon="4.38145">
        <ele>116.94</ele>
        <time>2018-01-07T09:45:03Z</time>
      </trkpt>
      <trkpt lat="50.67735" lon="4.3817">
        <ele>116.94</ele>
        <time>2018-01-07T09:45:13Z</time>
      </trkpt>
      <trkpt lat="50.67734" lon="4.38195">
        <ele>116.94</ele>
        <time>2018-01-07T09:45:26Z</time>
      </trkpt>
      <trkpt lat="50.67731" lon="4.38206">
        <ele>116.94</ele>
        <time>2018-01-07T09:45:36Z</time>
      </trkpt>
      <trkpt lat="50.67735" lon="4.38208">
        <ele>116.94</ele>
        <time>2018-01-07T09:45:41Z</time>
      </trkpt>
      <trkpt lat="50.6774" lon="4.38212">
        <ele>116.94</ele>
        <time>2018-01-07T09:45:47Z</time>
      </trkpt>
      <trkpt lat="50.67751" lon="4.38224">
        <ele>116.94</ele>
        <time>2018-01-07T09:46:00Z</time>
      </trkpt>
      <trkpt lat="50.67762" lon="4.38257">
        <ele>116.46</ele>
        <time>2018-01-07T09:46:15Z</time>
      </trkpt>
      <trkpt lat="50.67774" lon="4.38295">
        <ele>115.98</ele>
        <time>2018-01-07T09:46:32Z</time>
      </trkpt>
      <trkpt lat="50.67776" lon="4.38301">
        <ele>115.98</ele>
        <time>2018-01-07T09:46:35Z</time>
      </trkpt>
      <trkpt lat="50.67776" lon="4.38314">
        <ele>117.42</ele>
        <time>2018-01-07T09:46:41Z</time>
      </trkpt>
      <trkpt lat="50.67778" lon="4.38317">
        <ele>117.42</ele>
        <time>2018-01-07T09:46:43Z</time>
      </trkpt>
      <trkpt lat="50.67786" lon="4.38323">
        <ele>115.98</ele>
        <time>2018-01-07T09:46:49Z</time>
      </trkpt>
      <trkpt lat="50.67809" lon="4.38337">
        <ele>115.01</ele>
        <time>2018-01-07T09:47:06Z</time>
      </trkpt>
      <trkpt lat="50.67817" lon="4.38342">
        <ele>112.61</ele>
        <time>2018-01-07T09:47:12Z</time>
      </trkpt>
      <trkpt lat="50.67819" lon="4.38343">
        <ele>111.65</ele>
        <time>2018-01-07T09:47:14Z</time>
      </trkpt>
      <trkpt lat="50.67838" lon="4.38355">
        <ele>110.69</ele>
        <time>2018-01-07T09:47:31Z</time>
      </trkpt>
      <trkpt lat="50.6785" lon="4.38363">
        <ele>109.73</ele>
        <time>2018-01-07T09:47:41Z</time>
      </trkpt>
      <trkpt lat="50.67853" lon="4.38378">
        <ele>112.13</ele>
        <time>2018-01-07T09:47:47Z</time>
      </trkpt>
      <trkpt lat="50.67855" lon="4.38387">
        <ele>110.69</ele>
        <time>2018-01-07T09:47:50Z</time>
      </trkpt>
      <trkpt lat="50.67856" lon="4.38402">
        <ele>112.13</ele>
        <time>2018-01-07T09:47:56Z</time>
      </trkpt>
      <trkpt lat="50.67854" lon="4.3842">
        <ele>112.13</ele>
        <time>2018-01-07T09:48:04Z</time>
      </trkpt>
      <trkpt lat="50.67844" lon="4.38447">
        <ele>112.13</ele>
        <time>2018-01-07T09:48:19Z</time>
      </trkpt>
      <trkpt lat="50.67833" lon="4.38473">
        <ele>112.61</ele>
        <time>2018-01-07T09:48:33Z</time>
      </trkpt>
      <trkpt lat="50.67828" lon="4.38489">
        <ele>113.09</ele>
        <time>2018-01-07T09:48:42Z</time>
      </trkpt>
      <trkpt lat="50.6782" lon="4.38499">
        <ele>113.09</ele>
        <time>2018-01-07T09:48:49Z</time>
      </trkpt>
      <trkpt lat="50.67816" lon="4.3851">
        <ele>112.61</ele>
        <time>2018-01-07T09:48:55Z</time>
      </trkpt>
      <trkpt lat="50.67813" lon="4.38521">
        <ele>112.61</ele>
        <time>2018-01-07T09:49:01Z</time>
      </trkpt>
      <trkpt lat="50.67802" lon="4.38567">
        <ele>111.17</ele>
        <time>2018-01-07T09:49:21Z</time>
      </trkpt>
      <trkpt lat="50.67797" lon="4.38597">
        <ele>110.21</ele>
        <time>2018-01-07T09:49:35Z</time>
      </trkpt>
      <trkpt lat="50.67792" lon="4.3863">
        <ele>109.25</ele>
        <time>2018-01-07T09:49:50Z</time>
      </trkpt>
      <trkpt lat="50.67784" lon="4.38667">
        <ele>109.25</ele>
        <time>2018-01-07T09:50:08Z</time>
      </trkpt>
      <trkpt lat="50.67775" lon="4.38693">
        <ele>107.81</ele>
        <time>2018-01-07T09:50:22Z</time>
      </trkpt>
      <trkpt lat="50.67769" lon="4.38713">
        <ele>109.25</ele>
        <time>2018-01-07T09:50:32Z</time>
      </trkpt>
      <trkpt lat="50.67765" lon="4.38724">
        <ele>108.29</ele>
        <time>2018-01-07T09:50:38Z</time>
      </trkpt>
      <trkpt lat="50.6775" lon="4.38753">
        <ele>107.81</ele>
        <time>2018-01-07T09:50:56Z</time>
      </trkpt>
      <trkpt lat="50.6774" lon="4.38778">
        <ele>105.88</ele>
        <time>2018-01-07T09:51:10Z</time>
      </trkpt>
      <trkpt lat="50.67727" lon="4.38805">
        <ele>103</ele>
        <time>2018-01-07T09:51:26Z</time>
      </trkpt>
      <trkpt lat="50.67719" lon="4.3882">
        <ele>102.52</ele>
        <time>2018-01-07T09:51:35Z</time>
      </trkpt>
      <trkpt lat="50.67706" lon="4.38839">
        <ele>100.6</ele>
        <time>2018-01-07T09:51:47Z</time>
      </trkpt>
      <trkpt lat="50.67689" lon="4.38864">
        <ele>100.6</ele>
        <time>2018-01-07T09:52:03Z</time>
      </trkpt>
      <trkpt lat="50.67676" lon="4.38885">
        <ele>100.11</ele>
        <time>2018-01-07T09:52:17Z</time>
      </trkpt>
      <trkpt lat="50.67674" lon="4.38892">
        <ele>100.11</ele>
        <time>2018-01-07T09:52:21Z</time>
      </trkpt>
      <trkpt lat="50.67674" lon="4.38895">
        <ele>100.11</ele>
        <time>2018-01-07T09:52:23Z</time>
      </trkpt>
      <trkpt lat="50.67675" lon="4.38895">
        <ele>100.11</ele>
        <time>2018-01-07T09:52:24Z</time>
      </trkpt>
      <trkpt lat="50.67678" lon="4.38894">
        <ele>100.11</ele>
        <time>2018-01-07T09:52:28Z</time>
      </trkpt>
      <trkpt lat="50.67679" lon="4.38894">
        <ele>100.11</ele>
        <time>2018-01-07T09:52:29Z</time>
      </trkpt>
      <trkpt lat="50.6768" lon="4.38896">
        <ele>100.11</ele>
        <time>2018-01-07T09:52:30Z</time>
      </trkpt>
      <trkpt lat="50.67681" lon="4.38896">
        <ele>100.11</ele>
        <time>2018-01-07T09:52:31Z</time>
      </trkpt>
      <trkpt lat="50.67702" lon="4.38911">
        <ele>100.11</ele>
        <time>2018-01-07T09:52:48Z</time>
      </trkpt>
      <trkpt lat="50.67729" lon="4.38914">
        <ele>100.11</ele>
        <time>2018-01-07T09:53:07Z</time>
      </trkpt>
      <trkpt lat="50.67751" lon="4.38901">
        <ele>100.11</ele>
        <time>2018-01-07T09:53:24Z</time>
      </trkpt>
      <trkpt lat="50.67755" lon="4.38899">
        <ele>98.67</ele>
        <time>2018-01-07T09:53:27Z</time>
      </trkpt>
      <trkpt lat="50.67781" lon="4.38884">
        <ele>100.6</ele>
        <time>2018-01-07T09:53:46Z</time>
      </trkpt>
      <trkpt lat="50.67811" lon="4.38869">
        <ele>99.63</ele>
        <time>2018-01-07T09:54:09Z</time>
      </trkpt>
      <trkpt lat="50.67832" lon="4.38856">
        <ele>99.63</ele>
        <time>2018-01-07T09:54:26Z</time>
      </trkpt>
      <trkpt lat="50.67851" lon="4.38848">
        <ele>98.67</ele>
        <time>2018-01-07T09:54:42Z</time>
      </trkpt>
      <trkpt lat="50.67873" lon="4.38845">
        <ele>100.11</ele>
        <time>2018-01-07T09:54:58Z</time>
      </trkpt>
      <trkpt lat="50.67875" lon="4.38845">
        <ele>100.11</ele>
        <time>2018-01-07T09:54:59Z</time>
      </trkpt>
      <trkpt lat="50.67883" lon="4.38843">
        <ele>98.67</ele>
        <time>2018-01-07T09:55:05Z</time>
      </trkpt>
      <trkpt lat="50.67902" lon="4.38843">
        <ele>98.67</ele>
        <time>2018-01-07T09:55:19Z</time>
      </trkpt>
      <trkpt lat="50.67922" lon="4.38843">
        <ele>99.63</ele>
        <time>2018-01-07T09:55:34Z</time>
      </trkpt>
      <trkpt lat="50.67922" lon="4.38843">
        <ele>99.63</ele>
        <time>2018-01-07T09:55:35Z</time>
      </trkpt>
      <trkpt lat="50.67923" lon="4.38842">
        <ele>98.67</ele>
        <time>2018-01-07T09:55:36Z</time>
      </trkpt>
      <trkpt lat="50.67925" lon="4.38842">
        <ele>98.67</ele>
        <time>2018-01-07T09:55:37Z</time>
      </trkpt>
      <trkpt lat="50.67927" lon="4.38841">
        <ele>98.67</ele>
        <time>2018-01-07T09:55:38Z</time>
      </trkpt>
      <trkpt lat="50.67928" lon="4.3884">
        <ele>98.67</ele>
        <time>2018-01-07T09:55:39Z</time>
      </trkpt>
      <trkpt lat="50.67952" lon="4.38833">
        <ele>98.67</ele>
        <time>2018-01-07T09:55:57Z</time>
      </trkpt>
      <trkpt lat="50.67973" lon="4.38834">
        <ele>98.67</ele>
        <time>2018-01-07T09:56:12Z</time>
      </trkpt>
      <trkpt lat="50.67993" lon="4.38833">
        <ele>98.67</ele>
        <time>2018-01-07T09:56:26Z</time>
      </trkpt>
      <trkpt lat="50.68015" lon="4.38833">
        <ele>98.67</ele>
        <time>2018-01-07T09:56:41Z</time>
      </trkpt>
      <trkpt lat="50.68033" lon="4.38835">
        <ele>100.11</ele>
        <time>2018-01-07T09:56:53Z</time>
      </trkpt>
      <trkpt lat="50.68043" lon="4.38839">
        <ele>100.6</ele>
        <time>2018-01-07T09:57:00Z</time>
      </trkpt>
      <trkpt lat="50.68062" lon="4.38831">
        <ele>100.6</ele>
        <time>2018-01-07T09:57:15Z</time>
      </trkpt>
      <trkpt lat="50.68082" lon="4.38828">
        <ele>99.15</ele>
        <time>2018-01-07T09:57:29Z</time>
      </trkpt>
      <trkpt lat="50.68106" lon="4.38819">
        <ele>98.67</ele>
        <time>2018-01-07T09:57:47Z</time>
      </trkpt>
      <trkpt lat="50.68127" lon="4.38815">
        <ele>98.19</ele>
        <time>2018-01-07T09:58:02Z</time>
      </trkpt>
      <trkpt lat="50.68134" lon="4.38821">
        <ele>98.19</ele>
        <time>2018-01-07T09:58:09Z</time>
      </trkpt>
      <trkpt lat="50.68134" lon="4.38823">
        <ele>98.19</ele>
        <time>2018-01-07T09:58:10Z</time>
      </trkpt>
      <trkpt lat="50.68135" lon="4.38825">
        <ele>97.71</ele>
        <time>2018-01-07T09:58:11Z</time>
      </trkpt>
      <trkpt lat="50.68135" lon="4.38827">
        <ele>97.71</ele>
        <time>2018-01-07T09:58:12Z</time>
      </trkpt>
      <trkpt lat="50.68135" lon="4.38829">
        <ele>97.71</ele>
        <time>2018-01-07T09:58:13Z</time>
      </trkpt>
      <trkpt lat="50.68135" lon="4.38831">
        <ele>97.71</ele>
        <time>2018-01-07T09:58:14Z</time>
      </trkpt>
      <trkpt lat="50.68136" lon="4.38838">
        <ele>97.71</ele>
        <time>2018-01-07T09:58:17Z</time>
      </trkpt>
      <trkpt lat="50.68139" lon="4.38868">
        <ele>97.71</ele>
        <time>2018-01-07T09:58:32Z</time>
      </trkpt>
      <trkpt lat="50.68151" lon="4.38887">
        <ele>97.71</ele>
        <time>2018-01-07T09:58:45Z</time>
      </trkpt>
      <trkpt lat="50.68159" lon="4.38912">
        <ele>99.63</ele>
        <time>2018-01-07T09:58:59Z</time>
      </trkpt>
      <trkpt lat="50.68168" lon="4.38952">
        <ele>100.11</ele>
        <time>2018-01-07T09:59:17Z</time>
      </trkpt>
      <trkpt lat="50.68172" lon="4.38984">
        <ele>101.56</ele>
        <time>2018-01-07T09:59:31Z</time>
      </trkpt>
      <trkpt lat="50.68173" lon="4.38999">
        <ele>101.56</ele>
        <time>2018-01-07T09:59:39Z</time>
      </trkpt>
      <trkpt lat="50.68173" lon="4.39001">
        <ele>101.56</ele>
        <time>2018-01-07T09:59:40Z</time>
      </trkpt>
      <trkpt lat="50.68174" lon="4.39003">
        <ele>101.56</ele>
        <time>2018-01-07T09:59:41Z</time>
      </trkpt>
      <trkpt lat="50.68174" lon="4.39006">
        <ele>101.56</ele>
        <time>2018-01-07T09:59:42Z</time>
      </trkpt>
      <trkpt lat="50.68174" lon="4.39008">
        <ele>102.04</ele>
        <time>2018-01-07T09:59:43Z</time>
      </trkpt>
      <trkpt lat="50.68174" lon="4.3901">
        <ele>102.04</ele>
        <time>2018-01-07T09:59:44Z</time>
      </trkpt>
      <trkpt lat="50.68175" lon="4.39012">
        <ele>102.04</ele>
        <time>2018-01-07T09:59:45Z</time>
      </trkpt>
      <trkpt lat="50.68175" lon="4.39014">
        <ele>102.04</ele>
        <time>2018-01-07T09:59:46Z</time>
      </trkpt>
      <trkpt lat="50.68175" lon="4.39016">
        <ele>102.04</ele>
        <time>2018-01-07T09:59:47Z</time>
      </trkpt>
      <trkpt lat="50.68175" lon="4.39017">
        <ele>102.04</ele>
        <time>2018-01-07T09:59:48Z</time>
      </trkpt>
      <trkpt lat="50.68176" lon="4.39018">
        <ele>102.04</ele>
        <time>2018-01-07T09:59:49Z</time>
      </trkpt>
      <trkpt lat="50.68177" lon="4.39019">
        <ele>102.52</ele>
        <time>2018-01-07T09:59:50Z</time>
      </trkpt>
      <trkpt lat="50.68178" lon="4.39019">
        <ele>103.48</ele>
        <time>2018-01-07T09:59:51Z</time>
      </trkpt>
      <trkpt lat="50.68179" lon="4.39019">
        <ele>103.48</ele>
        <time>2018-01-07T09:59:52Z</time>
      </trkpt>
      <trkpt lat="50.68195" lon="4.39018">
        <ele>103.48</ele>
        <time>2018-01-07T10:00:02Z</time>
      </trkpt>
      <trkpt lat="50.6821" lon="4.39015">
        <ele>103</ele>
        <time>2018-01-07T10:00:15Z</time>
      </trkpt>
      <trkpt lat="50.68226" lon="4.39013">
        <ele>103</ele>
        <time>2018-01-07T10:00:30Z</time>
      </trkpt>
      <trkpt lat="50.68242" lon="4.39009">
        <ele>103</ele>
        <time>2018-01-07T10:00:44Z</time>
      </trkpt>
      <trkpt lat="50.68246" lon="4.39009">
        <ele>101.56</ele>
        <time>2018-01-07T10:00:47Z</time>
      </trkpt>
      <trkpt lat="50.68262" lon="4.39013">
        <ele>101.08</ele>
        <time>2018-01-07T10:00:58Z</time>
      </trkpt>
      <trkpt lat="50.68272" lon="4.39015">
        <ele>100.6</ele>
        <time>2018-01-07T10:01:06Z</time>
      </trkpt>
      <trkpt lat="50.68273" lon="4.39015">
        <ele>100.11</ele>
        <time>2018-01-07T10:01:07Z</time>
      </trkpt>
      <trkpt lat="50.68275" lon="4.39015">
        <ele>100.11</ele>
        <time>2018-01-07T10:01:08Z</time>
      </trkpt>
      <trkpt lat="50.68277" lon="4.39015">
        <ele>100.11</ele>
        <time>2018-01-07T10:01:09Z</time>
      </trkpt>
      <trkpt lat="50.68278" lon="4.39016">
        <ele>100.11</ele>
        <time>2018-01-07T10:01:10Z</time>
      </trkpt>
      <trkpt lat="50.6828" lon="4.39016">
        <ele>100.11</ele>
        <time>2018-01-07T10:01:11Z</time>
      </trkpt>
      <trkpt lat="50.68303" lon="4.39018">
        <ele>98.19</ele>
        <time>2018-01-07T10:01:27Z</time>
      </trkpt>
      <trkpt lat="50.6831" lon="4.39019">
        <ele>97.71</ele>
        <time>2018-01-07T10:01:32Z</time>
      </trkpt>
      <trkpt lat="50.68319" lon="4.39026">
        <ele>97.71</ele>
        <time>2018-01-07T10:01:42Z</time>
      </trkpt>
      <trkpt lat="50.6832" lon="4.39028">
        <ele>97.71</ele>
        <time>2018-01-07T10:01:43Z</time>
      </trkpt>
      <trkpt lat="50.68323" lon="4.39049">
        <ele>97.71</ele>
        <time>2018-01-07T10:01:55Z</time>
      </trkpt>
      <trkpt lat="50.68325" lon="4.39049">
        <ele>97.71</ele>
        <time>2018-01-07T10:01:59Z</time>
      </trkpt>
      <trkpt lat="50.68341" lon="4.39044">
        <ele>99.15</ele>
        <time>2018-01-07T10:02:13Z</time>
      </trkpt>
      <trkpt lat="50.68357" lon="4.39048">
        <ele>102.04</ele>
        <time>2018-01-07T10:02:28Z</time>
      </trkpt>
      <trkpt lat="50.68364" lon="4.39047">
        <ele>101.56</ele>
        <time>2018-01-07T10:02:35Z</time>
      </trkpt>
      <trkpt lat="50.68375" lon="4.39048">
        <ele>102.52</ele>
        <time>2018-01-07T10:02:44Z</time>
      </trkpt>
      <trkpt lat="50.68385" lon="4.39065">
        <ele>103.48</ele>
        <time>2018-01-07T10:02:52Z</time>
      </trkpt>
      <trkpt lat="50.68403" lon="4.39072">
        <ele>104.44</ele>
        <time>2018-01-07T10:03:05Z</time>
      </trkpt>
      <trkpt lat="50.6842" lon="4.39068">
        <ele>104.92</ele>
        <time>2018-01-07T10:03:19Z</time>
      </trkpt>
      <trkpt lat="50.6844" lon="4.39069">
        <ele>105.4</ele>
        <time>2018-01-07T10:03:34Z</time>
      </trkpt>
      <trkpt lat="50.68445" lon="4.39069">
        <ele>103.96</ele>
        <time>2018-01-07T10:03:39Z</time>
      </trkpt>
      <trkpt lat="50.68458" lon="4.39065">
        <ele>104.92</ele>
        <time>2018-01-07T10:03:53Z</time>
      </trkpt>
      <trkpt lat="50.68462" lon="4.39066">
        <ele>104.92</ele>
        <time>2018-01-07T10:03:56Z</time>
      </trkpt>
      <trkpt lat="50.68477" lon="4.39068">
        <ele>107.32</ele>
        <time>2018-01-07T10:04:10Z</time>
      </trkpt>
      <trkpt lat="50.68481" lon="4.39071">
        <ele>106.84</ele>
        <time>2018-01-07T10:04:13Z</time>
      </trkpt>
      <trkpt lat="50.68507" lon="4.39078">
        <ele>108.77</ele>
        <time>2018-01-07T10:04:26Z</time>
      </trkpt>
      <trkpt lat="50.6853" lon="4.39083">
        <ele>108.77</ele>
        <time>2018-01-07T10:04:40Z</time>
      </trkpt>
      <trkpt lat="50.68545" lon="4.39083">
        <ele>109.25</ele>
        <time>2018-01-07T10:04:54Z</time>
      </trkpt>
      <trkpt lat="50.68561" lon="4.39082">
        <ele>109.25</ele>
        <time>2018-01-07T10:05:09Z</time>
      </trkpt>
      <trkpt lat="50.68578" lon="4.39091">
        <ele>109.73</ele>
        <time>2018-01-07T10:05:16Z</time>
      </trkpt>
      <trkpt lat="50.68593" lon="4.39087">
        <ele>108.77</ele>
        <time>2018-01-07T10:05:26Z</time>
      </trkpt>
      <trkpt lat="50.68595" lon="4.39087">
        <ele>108.29</ele>
        <time>2018-01-07T10:05:28Z</time>
      </trkpt>
      <trkpt lat="50.68606" lon="4.3909">
        <ele>105.88</ele>
        <time>2018-01-07T10:05:40Z</time>
      </trkpt>
      <trkpt lat="50.68612" lon="4.39089">
        <ele>105.4</ele>
        <time>2018-01-07T10:05:45Z</time>
      </trkpt>
      <trkpt lat="50.68614" lon="4.39086">
        <ele>105.4</ele>
        <time>2018-01-07T10:05:47Z</time>
      </trkpt>
      <trkpt lat="50.68617" lon="4.39082">
        <ele>104.92</ele>
        <time>2018-01-07T10:05:50Z</time>
      </trkpt>
      <trkpt lat="50.68626" lon="4.39085">
        <ele>103.96</ele>
        <time>2018-01-07T10:05:57Z</time>
      </trkpt>
      <trkpt lat="50.68634" lon="4.39097">
        <ele>105.4</ele>
        <time>2018-01-07T10:06:09Z</time>
      </trkpt>
      <trkpt lat="50.68635" lon="4.39097">
        <ele>105.4</ele>
        <time>2018-01-07T10:06:10Z</time>
      </trkpt>
      <trkpt lat="50.68647" lon="4.39103">
        <ele>107.32</ele>
        <time>2018-01-07T10:06:22Z</time>
      </trkpt>
      <trkpt lat="50.68656" lon="4.39108">
        <ele>108.77</ele>
        <time>2018-01-07T10:06:30Z</time>
      </trkpt>
      <trkpt lat="50.68675" lon="4.39114">
        <ele>109.73</ele>
        <time>2018-01-07T10:06:44Z</time>
      </trkpt>
      <trkpt lat="50.68705" lon="4.39124">
        <ele>111.17</ele>
        <time>2018-01-07T10:07:02Z</time>
      </trkpt>
      <trkpt lat="50.68732" lon="4.39137">
        <ele>111.65</ele>
        <time>2018-01-07T10:07:17Z</time>
      </trkpt>
      <trkpt lat="50.68745" lon="4.39138">
        <ele>111.17</ele>
        <time>2018-01-07T10:07:27Z</time>
      </trkpt>
      <trkpt lat="50.68751" lon="4.39134">
        <ele>110.69</ele>
        <time>2018-01-07T10:07:32Z</time>
      </trkpt>
      <trkpt lat="50.68758" lon="4.3911">
        <ele>110.69</ele>
        <time>2018-01-07T10:07:47Z</time>
      </trkpt>
      <trkpt lat="50.68766" lon="4.39089">
        <ele>110.21</ele>
        <time>2018-01-07T10:07:58Z</time>
      </trkpt>
      <trkpt lat="50.68771" lon="4.39072">
        <ele>109.73</ele>
        <time>2018-01-07T10:08:07Z</time>
      </trkpt>
      <trkpt lat="50.6878" lon="4.39054">
        <ele>109.25</ele>
        <time>2018-01-07T10:08:18Z</time>
      </trkpt>
      <trkpt lat="50.68786" lon="4.39044">
        <ele>109.25</ele>
        <time>2018-01-07T10:08:26Z</time>
      </trkpt>
      <trkpt lat="50.68803" lon="4.39013">
        <ele>108.29</ele>
        <time>2018-01-07T10:08:43Z</time>
      </trkpt>
      <trkpt lat="50.68811" lon="4.38988">
        <ele>107.32</ele>
        <time>2018-01-07T10:08:57Z</time>
      </trkpt>
      <trkpt lat="50.68818" lon="4.38964">
        <ele>106.84</ele>
        <time>2018-01-07T10:09:11Z</time>
      </trkpt>
      <trkpt lat="50.68826" lon="4.38939">
        <ele>104.92</ele>
        <time>2018-01-07T10:09:28Z</time>
      </trkpt>
      <trkpt lat="50.68826" lon="4.38931">
        <ele>104.44</ele>
        <time>2018-01-07T10:09:33Z</time>
      </trkpt>
      <trkpt lat="50.68825" lon="4.38904">
        <ele>102.04</ele>
        <time>2018-01-07T10:09:46Z</time>
      </trkpt>
      <trkpt lat="50.68821" lon="4.38865">
        <ele>100.6</ele>
        <time>2018-01-07T10:10:02Z</time>
      </trkpt>
      <trkpt lat="50.68818" lon="4.38834">
        <ele>99.63</ele>
        <time>2018-01-07T10:10:18Z</time>
      </trkpt>
      <trkpt lat="50.68816" lon="4.38802">
        <ele>98.19</ele>
        <time>2018-01-07T10:10:33Z</time>
      </trkpt>
      <trkpt lat="50.68816" lon="4.38798">
        <ele>97.71</ele>
        <time>2018-01-07T10:10:36Z</time>
      </trkpt>
      <trkpt lat="50.68817" lon="4.38774">
        <ele>96.27</ele>
        <time>2018-01-07T10:10:47Z</time>
      </trkpt>
      <trkpt lat="50.68822" lon="4.38755">
        <ele>96.27</ele>
        <time>2018-01-07T10:10:58Z</time>
      </trkpt>
      <trkpt lat="50.68834" lon="4.38744">
        <ele>94.83</ele>
        <time>2018-01-07T10:11:07Z</time>
      </trkpt>
      <trkpt lat="50.68841" lon="4.38732">
        <ele>93.87</ele>
        <time>2018-01-07T10:11:15Z</time>
      </trkpt>
      <trkpt lat="50.68844" lon="4.38728">
        <ele>93.39</ele>
        <time>2018-01-07T10:11:18Z</time>
      </trkpt>
      <trkpt lat="50.68857" lon="4.38708">
        <ele>92.42</ele>
        <time>2018-01-07T10:11:32Z</time>
      </trkpt>
      <trkpt lat="50.68858" lon="4.38702">
        <ele>91.94</ele>
        <time>2018-01-07T10:11:36Z</time>
      </trkpt>
      <trkpt lat="50.68848" lon="4.38676">
        <ele>90.02</ele>
        <time>2018-01-07T10:11:52Z</time>
      </trkpt>
      <trkpt lat="50.68843" lon="4.38666">
        <ele>89.06</ele>
        <time>2018-01-07T10:11:58Z</time>
      </trkpt>
      <trkpt lat="50.68836" lon="4.38634">
        <ele>87.62</ele>
        <time>2018-01-07T10:12:15Z</time>
      </trkpt>
      <trkpt lat="50.68833" lon="4.38603">
        <ele>87.14</ele>
        <time>2018-01-07T10:12:29Z</time>
      </trkpt>
      <trkpt lat="50.68825" lon="4.38574">
        <ele>86.66</ele>
        <time>2018-01-07T10:12:42Z</time>
      </trkpt>
      <trkpt lat="50.68821" lon="4.38553">
        <ele>86.66</ele>
        <time>2018-01-07T10:12:54Z</time>
      </trkpt>
      <trkpt lat="50.68815" lon="4.38528">
        <ele>86.18</ele>
        <time>2018-01-07T10:13:08Z</time>
      </trkpt>
      <trkpt lat="50.68811" lon="4.38512">
        <ele>88.58</ele>
        <time>2018-01-07T10:13:18Z</time>
      </trkpt>
      <trkpt lat="50.68811" lon="4.38504">
        <ele>89.54</ele>
        <time>2018-01-07T10:13:28Z</time>
      </trkpt>
      <trkpt lat="50.68804" lon="4.38475">
        <ele>89.54</ele>
        <time>2018-01-07T10:13:42Z</time>
      </trkpt>
      <trkpt lat="50.68799" lon="4.38456">
        <ele>91.46</ele>
        <time>2018-01-07T10:13:54Z</time>
      </trkpt>
      <trkpt lat="50.68794" lon="4.3844">
        <ele>92.42</ele>
        <time>2018-01-07T10:14:05Z</time>
      </trkpt>
      <trkpt lat="50.68794" lon="4.38437">
        <ele>92.42</ele>
        <time>2018-01-07T10:14:07Z</time>
      </trkpt>
      <trkpt lat="50.68787" lon="4.38406">
        <ele>94.35</ele>
        <time>2018-01-07T10:14:22Z</time>
      </trkpt>
      <trkpt lat="50.68779" lon="4.38377">
        <ele>94.35</ele>
        <time>2018-01-07T10:14:38Z</time>
      </trkpt>
      <trkpt lat="50.68778" lon="4.38374">
        <ele>94.35</ele>
        <time>2018-01-07T10:14:40Z</time>
      </trkpt>
      <trkpt lat="50.68772" lon="4.38366">
        <ele>94.35</ele>
        <time>2018-01-07T10:14:46Z</time>
      </trkpt>
      <trkpt lat="50.68755" lon="4.38368">
        <ele>97.23</ele>
        <time>2018-01-07T10:14:59Z</time>
      </trkpt>
      <trkpt lat="50.68751" lon="4.38365">
        <ele>98.19</ele>
        <time>2018-01-07T10:15:06Z</time>
      </trkpt>
      <trkpt lat="50.68744" lon="4.38331">
        <ele>98.67</ele>
        <time>2018-01-07T10:15:23Z</time>
      </trkpt>
      <trkpt lat="50.68742" lon="4.38301">
        <ele>99.15</ele>
        <time>2018-01-07T10:15:40Z</time>
      </trkpt>
      <trkpt lat="50.68738" lon="4.38276">
        <ele>99.15</ele>
        <time>2018-01-07T10:15:53Z</time>
      </trkpt>
      <trkpt lat="50.68737" lon="4.38262">
        <ele>99.15</ele>
        <time>2018-01-07T10:15:59Z</time>
      </trkpt>
      <trkpt lat="50.68741" lon="4.38228">
        <ele>101.56</ele>
        <time>2018-01-07T10:16:14Z</time>
      </trkpt>
      <trkpt lat="50.68739" lon="4.38198">
        <ele>103</ele>
        <time>2018-01-07T10:16:28Z</time>
      </trkpt>
      <trkpt lat="50.68739" lon="4.38195">
        <ele>103</ele>
        <time>2018-01-07T10:16:30Z</time>
      </trkpt>
      <trkpt lat="50.68737" lon="4.38157">
        <ele>103.48</ele>
        <time>2018-01-07T10:16:48Z</time>
      </trkpt>
      <trkpt lat="50.68736" lon="4.38155">
        <ele>103.48</ele>
        <time>2018-01-07T10:16:49Z</time>
      </trkpt>
      <trkpt lat="50.68734" lon="4.38129">
        <ele>103.48</ele>
        <time>2018-01-07T10:17:00Z</time>
      </trkpt>
      <trkpt lat="50.68728" lon="4.38101">
        <ele>104.44</ele>
        <time>2018-01-07T10:17:11Z</time>
      </trkpt>
      <trkpt lat="50.68723" lon="4.38077">
        <ele>104.44</ele>
        <time>2018-01-07T10:17:23Z</time>
      </trkpt>
      <trkpt lat="50.6872" lon="4.38066">
        <ele>105.88</ele>
        <time>2018-01-07T10:17:33Z</time>
      </trkpt>
      <trkpt lat="50.68716" lon="4.38057">
        <ele>105.88</ele>
        <time>2018-01-07T10:17:39Z</time>
      </trkpt>
      <trkpt lat="50.68714" lon="4.38049">
        <ele>105.88</ele>
        <time>2018-01-07T10:17:44Z</time>
      </trkpt>
      <trkpt lat="50.68712" lon="4.38043">
        <ele>105.88</ele>
        <time>2018-01-07T10:17:48Z</time>
      </trkpt>
      <trkpt lat="50.68711" lon="4.38029">
        <ele>106.84</ele>
        <time>2018-01-07T10:18:08Z</time>
      </trkpt>
      <trkpt lat="50.68712" lon="4.38018">
        <ele>107.81</ele>
        <time>2018-01-07T10:18:25Z</time>
      </trkpt>
      <trkpt lat="50.68712" lon="4.38018">
        <ele>106.36</ele>
        <time>2018-01-07T10:18:37Z</time>
      </trkpt>
    </trkseg>
  </trk>
</gpx>